<?xml version="1.0" encoding="UTF-8" standalone="no" ?>
<gpx xmlns="http://www.topografix.com/GPX/1/1" xmlns:xsi="http://www.w3.org/2001/XMLSchema-instance" xsi:schemaLocation="http://www.topografix.com/GPX/1/1 http://www.topografix.com/GPX/1/1/gpx.xsd" version="1.1" creator="VisuGPX - https://www.visugpx.com">
  <metadata>
    <name>mions1</name>
  </metadata>
  <trk>
    <name><![CDATA[10826344-4 117 1298]]></name>
    <trkseg>
      <trkpt lat="45.66113" lon="4.95484">
        <ele>227</ele>
        <time>2020-03-10T18:09:55Z</time>
      </trkpt>
      <trkpt lat="45.65982" lon="4.95392">
        <ele>229</ele>
        <time>2020-03-10T18:10:21Z</time>
      </trkpt>
      <trkpt lat="45.65844" lon="4.95385">
        <ele>228</ele>
        <time>2020-03-10T18:10:46Z</time>
      </trkpt>
      <trkpt lat="45.65709" lon="4.95384">
        <ele>224</ele>
        <time>2020-03-10T18:11:10Z</time>
      </trkpt>
      <trkpt lat="45.65509" lon="4.95405">
        <ele>223</ele>
        <time>2020-03-10T18:11:45Z</time>
      </trkpt>
      <trkpt lat="45.65208" lon="4.95396">
        <ele>222</ele>
        <time>2020-03-10T18:12:39Z</time>
      </trkpt>
      <trkpt lat="45.65228" lon="4.94895">
        <ele>219</ele>
        <time>2020-03-10T18:13:41Z</time>
      </trkpt>
      <trkpt lat="45.65157" lon="4.94855">
        <ele>218</ele>
        <time>2020-03-10T18:13:55Z</time>
      </trkpt>
      <trkpt lat="45.64996" lon="4.94774">
        <ele>220</ele>
        <time>2020-03-10T18:14:25Z</time>
      </trkpt>
      <trkpt lat="45.64857" lon="4.94683">
        <ele>220</ele>
        <time>2020-03-10T18:14:52Z</time>
      </trkpt>
      <trkpt lat="45.64539" lon="4.94388">
        <ele>227</ele>
        <time>2020-03-10T18:16:00Z</time>
      </trkpt>
      <trkpt lat="45.64321" lon="4.94273">
        <ele>221</ele>
        <time>2020-03-10T18:16:41Z</time>
      </trkpt>
      <trkpt lat="45.6424" lon="4.94272">
        <ele>218</ele>
        <time>2020-03-10T18:16:56Z</time>
      </trkpt>
      <trkpt lat="45.64132" lon="4.94285">
        <ele>214</ele>
        <time>2020-03-10T18:17:15Z</time>
      </trkpt>
      <trkpt lat="45.63988" lon="4.94283">
        <ele>209</ele>
        <time>2020-03-10T18:17:40Z</time>
      </trkpt>
      <trkpt lat="45.63817" lon="4.94223">
        <ele>207</ele>
        <time>2020-03-10T18:18:12Z</time>
      </trkpt>
      <trkpt lat="45.63706" lon="4.94198">
        <ele>208</ele>
        <time>2020-03-10T18:18:32Z</time>
      </trkpt>
      <trkpt lat="45.63614" lon="4.94132">
        <ele>209</ele>
        <time>2020-03-10T18:18:50Z</time>
      </trkpt>
      <trkpt lat="45.63561" lon="4.94099">
        <ele>208</ele>
        <time>2020-03-10T18:19:00Z</time>
      </trkpt>
      <trkpt lat="45.63398" lon="4.94034">
        <ele>209</ele>
        <time>2020-03-10T18:19:30Z</time>
      </trkpt>
      <trkpt lat="45.63329" lon="4.93896">
        <ele>207</ele>
        <time>2020-03-10T18:19:52Z</time>
      </trkpt>
      <trkpt lat="45.63244" lon="4.93692">
        <ele>206</ele>
        <time>2020-03-10T18:20:21Z</time>
      </trkpt>
      <trkpt lat="45.63165" lon="4.93517">
        <ele>206</ele>
        <time>2020-03-10T18:20:47Z</time>
      </trkpt>
      <trkpt lat="45.63111" lon="4.93348">
        <ele>209</ele>
        <time>2020-03-10T18:21:10Z</time>
      </trkpt>
      <trkpt lat="45.6311" lon="4.9302">
        <ele>205</ele>
        <time>2020-03-10T18:21:51Z</time>
      </trkpt>
      <trkpt lat="45.63106" lon="4.92815">
        <ele>203</ele>
        <time>2020-03-10T18:22:17Z</time>
      </trkpt>
      <trkpt lat="45.63075" lon="4.92683">
        <ele>202</ele>
        <time>2020-03-10T18:22:34Z</time>
      </trkpt>
      <trkpt lat="45.63006" lon="4.92523">
        <ele>201</ele>
        <time>2020-03-10T18:22:57Z</time>
      </trkpt>
      <trkpt lat="45.63" lon="4.92433">
        <ele>200</ele>
        <time>2020-03-10T18:23:08Z</time>
      </trkpt>
      <trkpt lat="45.62956" lon="4.92206">
        <ele>199</ele>
        <time>2020-03-10T18:23:38Z</time>
      </trkpt>
      <trkpt lat="45.62895" lon="4.91811">
        <ele>198</ele>
        <time>2020-03-10T18:24:28Z</time>
      </trkpt>
      <trkpt lat="45.6286" lon="4.9162">
        <ele>197</ele>
        <time>2020-03-10T18:24:53Z</time>
      </trkpt>
      <trkpt lat="45.62836" lon="4.9134">
        <ele>192</ele>
        <time>2020-03-10T18:25:28Z</time>
      </trkpt>
      <trkpt lat="45.62843" lon="4.90861">
        <ele>192</ele>
        <time>2020-03-10T18:26:27Z</time>
      </trkpt>
      <trkpt lat="45.62662" lon="4.90858">
        <ele>194</ele>
        <time>2020-03-10T18:27:00Z</time>
      </trkpt>
      <trkpt lat="45.62525" lon="4.9089">
        <ele>194</ele>
        <time>2020-03-10T18:27:24Z</time>
      </trkpt>
      <trkpt lat="45.62296" lon="4.90949">
        <ele>199</ele>
        <time>2020-03-10T18:28:06Z</time>
      </trkpt>
      <trkpt lat="45.62268" lon="4.90732">
        <ele>200</ele>
        <time>2020-03-10T18:28:33Z</time>
      </trkpt>
      <trkpt lat="45.62256" lon="4.90621">
        <ele>197</ele>
        <time>2020-03-10T18:28:47Z</time>
      </trkpt>
      <trkpt lat="45.62212" lon="4.90506">
        <ele>199</ele>
        <time>2020-03-10T18:29:03Z</time>
      </trkpt>
      <trkpt lat="45.62121" lon="4.90336">
        <ele>198</ele>
        <time>2020-03-10T18:29:30Z</time>
      </trkpt>
      <trkpt lat="45.62042" lon="4.90222">
        <ele>197</ele>
        <time>2020-03-10T18:29:50Z</time>
      </trkpt>
      <trkpt lat="45.62022" lon="4.90098">
        <ele>197</ele>
        <time>2020-03-10T18:30:06Z</time>
      </trkpt>
      <trkpt lat="45.62031" lon="4.89958">
        <ele>196</ele>
        <time>2020-03-10T18:30:23Z</time>
      </trkpt>
      <trkpt lat="45.61964" lon="4.89801">
        <ele>196</ele>
        <time>2020-03-10T18:30:46Z</time>
      </trkpt>
      <trkpt lat="45.61862" lon="4.89686">
        <ele>200</ele>
        <time>2020-03-10T18:31:09Z</time>
      </trkpt>
      <trkpt lat="45.61816" lon="4.89662">
        <ele>202</ele>
        <time>2020-03-10T18:31:18Z</time>
      </trkpt>
      <trkpt lat="45.61609" lon="4.89121">
        <ele>200</ele>
        <time>2020-03-10T18:32:35Z</time>
      </trkpt>
      <trkpt lat="45.61528" lon="4.88982">
        <ele>205</ele>
        <time>2020-03-10T18:32:57Z</time>
      </trkpt>
      <trkpt lat="45.61408" lon="4.88805">
        <ele>213</ele>
        <time>2020-03-10T18:33:28Z</time>
      </trkpt>
      <trkpt lat="45.61374" lon="4.88657">
        <ele>216</ele>
        <time>2020-03-10T18:33:47Z</time>
      </trkpt>
      <trkpt lat="45.61323" lon="4.88499">
        <ele>217</ele>
        <time>2020-03-10T18:34:09Z</time>
      </trkpt>
      <trkpt lat="45.61247" lon="4.88301">
        <ele>217</ele>
        <time>2020-03-10T18:34:37Z</time>
      </trkpt>
      <trkpt lat="45.6119" lon="4.88111">
        <ele>219</ele>
        <time>2020-03-10T18:35:03Z</time>
      </trkpt>
      <trkpt lat="45.61157" lon="4.87902">
        <ele>218</ele>
        <time>2020-03-10T18:35:30Z</time>
      </trkpt>
      <trkpt lat="45.61152" lon="4.87725">
        <ele>218</ele>
        <time>2020-03-10T18:35:52Z</time>
      </trkpt>
      <trkpt lat="45.61139" lon="4.87533">
        <ele>220</ele>
        <time>2020-03-10T18:36:16Z</time>
      </trkpt>
      <trkpt lat="45.61109" lon="4.87355">
        <ele>221</ele>
        <time>2020-03-10T18:36:38Z</time>
      </trkpt>
      <trkpt lat="45.61049" lon="4.87189">
        <ele>219</ele>
        <time>2020-03-10T18:37:02Z</time>
      </trkpt>
      <trkpt lat="45.60883" lon="4.87075">
        <ele>219</ele>
        <time>2020-03-10T18:37:34Z</time>
      </trkpt>
      <trkpt lat="45.60855" lon="4.8699">
        <ele>218</ele>
        <time>2020-03-10T18:37:46Z</time>
      </trkpt>
      <trkpt lat="45.60831" lon="4.8685">
        <ele>220</ele>
        <time>2020-03-10T18:38:04Z</time>
      </trkpt>
      <trkpt lat="45.60802" lon="4.86542">
        <ele>223</ele>
        <time>2020-03-10T18:38:43Z</time>
      </trkpt>
      <trkpt lat="45.60796" lon="4.86321">
        <ele>225</ele>
        <time>2020-03-10T18:39:10Z</time>
      </trkpt>
      <trkpt lat="45.60794" lon="4.86111">
        <ele>222</ele>
        <time>2020-03-10T18:39:36Z</time>
      </trkpt>
      <trkpt lat="45.60749" lon="4.85996">
        <ele>221</ele>
        <time>2020-03-10T18:39:53Z</time>
      </trkpt>
      <trkpt lat="45.60694" lon="4.85915">
        <ele>220</ele>
        <time>2020-03-10T18:40:07Z</time>
      </trkpt>
      <trkpt lat="45.60659" lon="4.85767">
        <ele>217</ele>
        <time>2020-03-10T18:40:26Z</time>
      </trkpt>
      <trkpt lat="45.60646" lon="4.85633">
        <ele>216</ele>
        <time>2020-03-10T18:40:43Z</time>
      </trkpt>
      <trkpt lat="45.60608" lon="4.85478">
        <ele>216</ele>
        <time>2020-03-10T18:41:04Z</time>
      </trkpt>
      <trkpt lat="45.60582" lon="4.85042">
        <ele>218</ele>
        <time>2020-03-10T18:41:58Z</time>
      </trkpt>
      <trkpt lat="45.60577" lon="4.84883">
        <ele>219</ele>
        <time>2020-03-10T18:42:18Z</time>
      </trkpt>
      <trkpt lat="45.60612" lon="4.84621">
        <ele>224</ele>
        <time>2020-03-10T18:42:51Z</time>
      </trkpt>
      <trkpt lat="45.60591" lon="4.84489">
        <ele>224</ele>
        <time>2020-03-10T18:43:08Z</time>
      </trkpt>
      <trkpt lat="45.60597" lon="4.84384">
        <ele>225</ele>
        <time>2020-03-10T18:43:21Z</time>
      </trkpt>
      <trkpt lat="45.60565" lon="4.84194">
        <ele>225</ele>
        <time>2020-03-10T18:43:45Z</time>
      </trkpt>
      <trkpt lat="45.60541" lon="4.84085">
        <ele>227</ele>
        <time>2020-03-10T18:44:00Z</time>
      </trkpt>
      <trkpt lat="45.605" lon="4.83914">
        <ele>226</ele>
        <time>2020-03-10T18:44:22Z</time>
      </trkpt>
      <trkpt lat="45.60453" lon="4.83738">
        <ele>225</ele>
        <time>2020-03-10T18:44:46Z</time>
      </trkpt>
      <trkpt lat="45.60419" lon="4.83588">
        <ele>224</ele>
        <time>2020-03-10T18:45:05Z</time>
      </trkpt>
      <trkpt lat="45.60412" lon="4.83485">
        <ele>227</ele>
        <time>2020-03-10T18:45:18Z</time>
      </trkpt>
      <trkpt lat="45.60396" lon="4.83403">
        <ele>230</ele>
        <time>2020-03-10T18:45:29Z</time>
      </trkpt>
      <trkpt lat="45.60361" lon="4.83264">
        <ele>230</ele>
        <time>2020-03-10T18:45:47Z</time>
      </trkpt>
      <trkpt lat="45.60456" lon="4.82881">
        <ele>236</ele>
        <time>2020-03-10T18:46:38Z</time>
      </trkpt>
      <trkpt lat="45.60486" lon="4.8269">
        <ele>236</ele>
        <time>2020-03-10T18:47:02Z</time>
      </trkpt>
      <trkpt lat="45.6048" lon="4.8248">
        <ele>234</ele>
        <time>2020-03-10T18:47:28Z</time>
      </trkpt>
      <trkpt lat="45.60431" lon="4.82229">
        <ele>233</ele>
        <time>2020-03-10T18:48:01Z</time>
      </trkpt>
      <trkpt lat="45.60291" lon="4.82105">
        <ele>230</ele>
        <time>2020-03-10T18:48:30Z</time>
      </trkpt>
      <trkpt lat="45.60201" lon="4.81991">
        <ele>230</ele>
        <time>2020-03-10T18:48:51Z</time>
      </trkpt>
      <trkpt lat="45.60047" lon="4.81915">
        <ele>230</ele>
        <time>2020-03-10T18:49:20Z</time>
      </trkpt>
      <trkpt lat="45.59969" lon="4.81824">
        <ele>229</ele>
        <time>2020-03-10T18:49:38Z</time>
      </trkpt>
      <trkpt lat="45.59852" lon="4.81678">
        <ele>228</ele>
        <time>2020-03-10T18:50:06Z</time>
      </trkpt>
      <trkpt lat="45.59699" lon="4.81472">
        <ele>225</ele>
        <time>2020-03-10T18:50:43Z</time>
      </trkpt>
      <trkpt lat="45.59563" lon="4.81351">
        <ele>221</ele>
        <time>2020-03-10T18:51:12Z</time>
      </trkpt>
      <trkpt lat="45.59422" lon="4.81298">
        <ele>223</ele>
        <time>2020-03-10T18:51:38Z</time>
      </trkpt>
      <trkpt lat="45.59284" lon="4.81277">
        <ele>219</ele>
        <time>2020-03-10T18:52:02Z</time>
      </trkpt>
      <trkpt lat="45.59172" lon="4.81238">
        <ele>214</ele>
        <time>2020-03-10T18:52:23Z</time>
      </trkpt>
      <trkpt lat="45.59071" lon="4.81167">
        <ele>214</ele>
        <time>2020-03-10T18:52:43Z</time>
      </trkpt>
      <trkpt lat="45.58997" lon="4.81084">
        <ele>209</ele>
        <time>2020-03-10T18:53:00Z</time>
      </trkpt>
      <trkpt lat="45.58971" lon="4.81004">
        <ele>208</ele>
        <time>2020-03-10T18:53:11Z</time>
      </trkpt>
      <trkpt lat="45.58972" lon="4.80866">
        <ele>210</ele>
        <time>2020-03-10T18:53:28Z</time>
      </trkpt>
      <trkpt lat="45.58969" lon="4.80689">
        <ele>208</ele>
        <time>2020-03-10T18:53:50Z</time>
      </trkpt>
      <trkpt lat="45.59007" lon="4.80578">
        <ele>206</ele>
        <time>2020-03-10T18:54:05Z</time>
      </trkpt>
      <trkpt lat="45.59009" lon="4.80489">
        <ele>200</ele>
        <time>2020-03-10T18:54:16Z</time>
      </trkpt>
      <trkpt lat="45.58956" lon="4.8043">
        <ele>196</ele>
        <time>2020-03-10T18:54:28Z</time>
      </trkpt>
      <trkpt lat="45.58848" lon="4.80392">
        <ele>196</ele>
        <time>2020-03-10T18:54:48Z</time>
      </trkpt>
      <trkpt lat="45.58625" lon="4.80372">
        <ele>197</ele>
        <time>2020-03-10T18:55:28Z</time>
      </trkpt>
      <trkpt lat="45.58558" lon="4.80387">
        <ele>191</ele>
        <time>2020-03-10T18:55:40Z</time>
      </trkpt>
      <trkpt lat="45.5851" lon="4.80374">
        <ele>188</ele>
        <time>2020-03-10T18:55:49Z</time>
      </trkpt>
      <trkpt lat="45.58469" lon="4.80306">
        <ele>183</ele>
        <time>2020-03-10T18:56:00Z</time>
      </trkpt>
      <trkpt lat="45.58404" lon="4.8002">
        <ele>175</ele>
        <time>2020-03-10T18:56:37Z</time>
      </trkpt>
      <trkpt lat="45.58256" lon="4.79596">
        <ele>169</ele>
        <time>2020-03-10T18:57:36Z</time>
      </trkpt>
      <trkpt lat="45.58129" lon="4.79684">
        <ele>168</ele>
        <time>2020-03-10T18:58:01Z</time>
      </trkpt>
      <trkpt lat="45.58094" lon="4.79637">
        <ele>162</ele>
        <time>2020-03-10T18:58:10Z</time>
      </trkpt>
      <trkpt lat="45.58227" lon="4.79453">
        <ele>163</ele>
        <time>2020-03-10T18:58:43Z</time>
      </trkpt>
      <trkpt lat="45.58174" lon="4.79348">
        <ele>161</ele>
        <time>2020-03-10T18:58:59Z</time>
      </trkpt>
      <trkpt lat="45.58262" lon="4.7923">
        <ele>161</ele>
        <time>2020-03-10T18:59:20Z</time>
      </trkpt>
      <trkpt lat="45.58401" lon="4.7915">
        <ele>159</ele>
        <time>2020-03-10T18:59:47Z</time>
      </trkpt>
      <trkpt lat="45.58383" lon="4.78324">
        <ele>157</ele>
        <time>2020-03-10T19:01:30Z</time>
      </trkpt>
      <trkpt lat="45.58077" lon="4.77879">
        <ele>159</ele>
        <time>2020-03-10T19:02:48Z</time>
      </trkpt>
      <trkpt lat="45.58655" lon="4.77161">
        <ele>158</ele>
        <time>2020-03-10T19:05:04Z</time>
      </trkpt>
      <trkpt lat="45.58538" lon="4.76804">
        <ele>160</ele>
        <time>2020-03-10T19:05:53Z</time>
      </trkpt>
      <trkpt lat="45.58463" lon="4.76637">
        <ele>165</ele>
        <time>2020-03-10T19:06:18Z</time>
      </trkpt>
      <trkpt lat="45.58449" lon="4.76539">
        <ele>175</ele>
        <time>2020-03-10T19:06:30Z</time>
      </trkpt>
      <trkpt lat="45.58457" lon="4.76477">
        <ele>173</ele>
        <time>2020-03-10T19:06:38Z</time>
      </trkpt>
      <trkpt lat="45.58534" lon="4.76396">
        <ele>159</ele>
        <time>2020-03-10T19:06:55Z</time>
      </trkpt>
      <trkpt lat="45.5855" lon="4.76283">
        <ele>159</ele>
        <time>2020-03-10T19:07:09Z</time>
      </trkpt>
      <trkpt lat="45.58723" lon="4.76108">
        <ele>160</ele>
        <time>2020-03-10T19:07:47Z</time>
      </trkpt>
      <trkpt lat="45.58743" lon="4.76228">
        <ele>160</ele>
        <time>2020-03-10T19:08:03Z</time>
      </trkpt>
      <trkpt lat="45.588" lon="4.76217">
        <ele>160</ele>
        <time>2020-03-10T19:08:13Z</time>
      </trkpt>
      <trkpt lat="45.58799" lon="4.76053">
        <ele>160</ele>
        <time>2020-03-10T19:08:33Z</time>
      </trkpt>
      <trkpt lat="45.58866" lon="4.7592">
        <ele>165</ele>
        <time>2020-03-10T19:08:54Z</time>
      </trkpt>
      <trkpt lat="45.58742" lon="4.7567">
        <ele>167</ele>
        <time>2020-03-10T19:09:32Z</time>
      </trkpt>
      <trkpt lat="45.58691" lon="4.75459">
        <ele>171</ele>
        <time>2020-03-10T19:10:00Z</time>
      </trkpt>
      <trkpt lat="45.58593" lon="4.75122">
        <ele>183</ele>
        <time>2020-03-10T19:10:45Z</time>
      </trkpt>
      <trkpt lat="45.58536" lon="4.74999">
        <ele>178</ele>
        <time>2020-03-10T19:11:03Z</time>
      </trkpt>
      <trkpt lat="45.58507" lon="4.74824">
        <ele>185</ele>
        <time>2020-03-10T19:11:26Z</time>
      </trkpt>
      <trkpt lat="45.58446" lon="4.74707">
        <ele>184</ele>
        <time>2020-03-10T19:11:44Z</time>
      </trkpt>
      <trkpt lat="45.58363" lon="4.74531">
        <ele>182</ele>
        <time>2020-03-10T19:12:10Z</time>
      </trkpt>
      <trkpt lat="45.58321" lon="4.74324">
        <ele>183</ele>
        <time>2020-03-10T19:12:37Z</time>
      </trkpt>
      <trkpt lat="45.58292" lon="4.74134">
        <ele>187</ele>
        <time>2020-03-10T19:13:01Z</time>
      </trkpt>
      <trkpt lat="45.5825" lon="4.73987">
        <ele>180</ele>
        <time>2020-03-10T19:13:21Z</time>
      </trkpt>
      <trkpt lat="45.58193" lon="4.73871">
        <ele>175</ele>
        <time>2020-03-10T19:13:39Z</time>
      </trkpt>
      <trkpt lat="45.58101" lon="4.73696">
        <ele>176</ele>
        <time>2020-03-10T19:14:06Z</time>
      </trkpt>
      <trkpt lat="45.57943" lon="4.73361">
        <ele>179</ele>
        <time>2020-03-10T19:14:56Z</time>
      </trkpt>
      <trkpt lat="45.57994" lon="4.73057">
        <ele>191</ele>
        <time>2020-03-10T19:15:35Z</time>
      </trkpt>
      <trkpt lat="45.58056" lon="4.72744">
        <ele>183</ele>
        <time>2020-03-10T19:16:16Z</time>
      </trkpt>
      <trkpt lat="45.57937" lon="4.72407">
        <ele>183</ele>
        <time>2020-03-10T19:17:03Z</time>
      </trkpt>
      <trkpt lat="45.57823" lon="4.72315">
        <ele>182</ele>
        <time>2020-03-10T19:17:26Z</time>
      </trkpt>
      <trkpt lat="45.57738" lon="4.72242">
        <ele>183</ele>
        <time>2020-03-10T19:17:44Z</time>
      </trkpt>
      <trkpt lat="45.57707" lon="4.7209">
        <ele>187</ele>
        <time>2020-03-10T19:18:03Z</time>
      </trkpt>
      <trkpt lat="45.57663" lon="4.71978">
        <ele>186</ele>
        <time>2020-03-10T19:18:19Z</time>
      </trkpt>
      <trkpt lat="45.57585" lon="4.71825">
        <ele>189</ele>
        <time>2020-03-10T19:18:43Z</time>
      </trkpt>
      <trkpt lat="45.57541" lon="4.71796">
        <ele>185</ele>
        <time>2020-03-10T19:18:52Z</time>
      </trkpt>
      <trkpt lat="45.57514" lon="4.71772">
        <ele>183</ele>
        <time>2020-03-10T19:18:57Z</time>
      </trkpt>
      <trkpt lat="45.57498" lon="4.71692">
        <ele>186</ele>
        <time>2020-03-10T19:19:08Z</time>
      </trkpt>
      <trkpt lat="45.57507" lon="4.71613">
        <ele>193</ele>
        <time>2020-03-10T19:19:18Z</time>
      </trkpt>
      <trkpt lat="45.57462" lon="4.71455">
        <ele>198</ele>
        <time>2020-03-10T19:19:39Z</time>
      </trkpt>
      <trkpt lat="45.57405" lon="4.71353">
        <ele>186</ele>
        <time>2020-03-10T19:19:55Z</time>
      </trkpt>
      <trkpt lat="45.57302" lon="4.71341">
        <ele>187</ele>
        <time>2020-03-10T19:20:14Z</time>
      </trkpt>
      <trkpt lat="45.57094" lon="4.71096">
        <ele>193</ele>
        <time>2020-03-10T19:21:02Z</time>
      </trkpt>
      <trkpt lat="45.57025" lon="4.71024">
        <ele>198</ele>
        <time>2020-03-10T19:21:17Z</time>
      </trkpt>
      <trkpt lat="45.5696" lon="4.70976">
        <ele>196</ele>
        <time>2020-03-10T19:21:30Z</time>
      </trkpt>
      <trkpt lat="45.56904" lon="4.70897">
        <ele>194</ele>
        <time>2020-03-10T19:21:44Z</time>
      </trkpt>
      <trkpt lat="45.56852" lon="4.70817">
        <ele>195</ele>
        <time>2020-03-10T19:21:57Z</time>
      </trkpt>
      <trkpt lat="45.56813" lon="4.7068">
        <ele>201</ele>
        <time>2020-03-10T19:22:16Z</time>
      </trkpt>
      <trkpt lat="45.56813" lon="4.70593">
        <ele>203</ele>
        <time>2020-03-10T19:22:27Z</time>
      </trkpt>
      <trkpt lat="45.56801" lon="4.70514">
        <ele>208</ele>
        <time>2020-03-10T19:22:37Z</time>
      </trkpt>
      <trkpt lat="45.56722" lon="4.70428">
        <ele>195</ele>
        <time>2020-03-10T19:22:54Z</time>
      </trkpt>
      <trkpt lat="45.56655" lon="4.70349">
        <ele>190</ele>
        <time>2020-03-10T19:23:10Z</time>
      </trkpt>
      <trkpt lat="45.56565" lon="4.70286">
        <ele>198</ele>
        <time>2020-03-10T19:23:28Z</time>
      </trkpt>
      <trkpt lat="45.56484" lon="4.70288">
        <ele>195</ele>
        <time>2020-03-10T19:23:42Z</time>
      </trkpt>
      <trkpt lat="45.56458" lon="4.70253">
        <ele>195</ele>
        <time>2020-03-10T19:23:48Z</time>
      </trkpt>
      <trkpt lat="45.56384" lon="4.70097">
        <ele>198</ele>
        <time>2020-03-10T19:24:12Z</time>
      </trkpt>
      <trkpt lat="45.56383" lon="4.70037">
        <ele>200</ele>
        <time>2020-03-10T19:24:19Z</time>
      </trkpt>
      <trkpt lat="45.56423" lon="4.69952">
        <ele>207</ele>
        <time>2020-03-10T19:24:32Z</time>
      </trkpt>
      <trkpt lat="45.56426" lon="4.69863">
        <ele>207</ele>
        <time>2020-03-10T19:24:43Z</time>
      </trkpt>
      <trkpt lat="45.56422" lon="4.69745">
        <ele>210</ele>
        <time>2020-03-10T19:24:58Z</time>
      </trkpt>
      <trkpt lat="45.56413" lon="4.69648">
        <ele>214</ele>
        <time>2020-03-10T19:25:10Z</time>
      </trkpt>
      <trkpt lat="45.5635" lon="4.69553">
        <ele>211</ele>
        <time>2020-03-10T19:25:26Z</time>
      </trkpt>
      <trkpt lat="45.56283" lon="4.69496">
        <ele>215</ele>
        <time>2020-03-10T19:25:40Z</time>
      </trkpt>
      <trkpt lat="45.56194" lon="4.69462">
        <ele>208</ele>
        <time>2020-03-10T19:25:57Z</time>
      </trkpt>
      <trkpt lat="45.56116" lon="4.69402">
        <ele>206</ele>
        <time>2020-03-10T19:26:12Z</time>
      </trkpt>
      <trkpt lat="45.5603" lon="4.69291">
        <ele>208</ele>
        <time>2020-03-10T19:26:33Z</time>
      </trkpt>
      <trkpt lat="45.5595" lon="4.69132">
        <ele>210</ele>
        <time>2020-03-10T19:26:57Z</time>
      </trkpt>
      <trkpt lat="45.55929" lon="4.69064">
        <ele>209</ele>
        <time>2020-03-10T19:27:07Z</time>
      </trkpt>
      <trkpt lat="45.55922" lon="4.68967">
        <ele>211</ele>
        <time>2020-03-10T19:27:19Z</time>
      </trkpt>
      <trkpt lat="45.55883" lon="4.68855">
        <ele>210</ele>
        <time>2020-03-10T19:27:34Z</time>
      </trkpt>
      <trkpt lat="45.55862" lon="4.68772">
        <ele>208</ele>
        <time>2020-03-10T19:27:45Z</time>
      </trkpt>
      <trkpt lat="45.55839" lon="4.68651">
        <ele>216</ele>
        <time>2020-03-10T19:28:01Z</time>
      </trkpt>
      <trkpt lat="45.55787" lon="4.68552">
        <ele>216</ele>
        <time>2020-03-10T19:28:16Z</time>
      </trkpt>
      <trkpt lat="45.5575" lon="4.68466">
        <ele>212</ele>
        <time>2020-03-10T19:28:29Z</time>
      </trkpt>
      <trkpt lat="45.55688" lon="4.68343">
        <ele>215</ele>
        <time>2020-03-10T19:28:48Z</time>
      </trkpt>
      <trkpt lat="45.55585" lon="4.68183">
        <ele>212</ele>
        <time>2020-03-10T19:29:15Z</time>
      </trkpt>
      <trkpt lat="45.55541" lon="4.6815">
        <ele>211</ele>
        <time>2020-03-10T19:29:24Z</time>
      </trkpt>
      <trkpt lat="45.5539" lon="4.68146">
        <ele>210</ele>
        <time>2020-03-10T19:29:51Z</time>
      </trkpt>
      <trkpt lat="45.55338" lon="4.68134">
        <ele>214</ele>
        <time>2020-03-10T19:30:00Z</time>
      </trkpt>
      <trkpt lat="45.5524" lon="4.68091">
        <ele>217</ele>
        <time>2020-03-10T19:30:18Z</time>
      </trkpt>
      <trkpt lat="45.55134" lon="4.68033">
        <ele>211</ele>
        <time>2020-03-10T19:30:39Z</time>
      </trkpt>
      <trkpt lat="45.55122" lon="4.67961">
        <ele>210</ele>
        <time>2020-03-10T19:30:48Z</time>
      </trkpt>
      <trkpt lat="45.55174" lon="4.67889">
        <ele>214</ele>
        <time>2020-03-10T19:31:01Z</time>
      </trkpt>
      <trkpt lat="45.55222" lon="4.6784">
        <ele>223</ele>
        <time>2020-03-10T19:31:11Z</time>
      </trkpt>
      <trkpt lat="45.55272" lon="4.67694">
        <ele>225</ele>
        <time>2020-03-10T19:31:31Z</time>
      </trkpt>
      <trkpt lat="45.5526" lon="4.67591">
        <ele>224</ele>
        <time>2020-03-10T19:31:44Z</time>
      </trkpt>
      <trkpt lat="45.5515" lon="4.67407">
        <ele>233</ele>
        <time>2020-03-10T19:32:15Z</time>
      </trkpt>
      <trkpt lat="45.55048" lon="4.67321">
        <ele>234</ele>
        <time>2020-03-10T19:32:36Z</time>
      </trkpt>
      <trkpt lat="45.54976" lon="4.67341">
        <ele>222</ele>
        <time>2020-03-10T19:32:49Z</time>
      </trkpt>
      <trkpt lat="45.54911" lon="4.67331">
        <ele>217</ele>
        <time>2020-03-10T19:33:00Z</time>
      </trkpt>
      <trkpt lat="45.54865" lon="4.67219">
        <ele>223</ele>
        <time>2020-03-10T19:33:17Z</time>
      </trkpt>
      <trkpt lat="45.54825" lon="4.6714">
        <ele>223</ele>
        <time>2020-03-10T19:33:29Z</time>
      </trkpt>
      <trkpt lat="45.54698" lon="4.67016">
        <ele>221</ele>
        <time>2020-03-10T19:33:56Z</time>
      </trkpt>
      <trkpt lat="45.54684" lon="4.6694">
        <ele>224</ele>
        <time>2020-03-10T19:34:06Z</time>
      </trkpt>
      <trkpt lat="45.54705" lon="4.66854">
        <ele>238</ele>
        <time>2020-03-10T19:34:17Z</time>
      </trkpt>
      <trkpt lat="45.54677" lon="4.66768">
        <ele>231</ele>
        <time>2020-03-10T19:34:29Z</time>
      </trkpt>
      <trkpt lat="45.54625" lon="4.66669">
        <ele>229</ele>
        <time>2020-03-10T19:34:44Z</time>
      </trkpt>
      <trkpt lat="45.54558" lon="4.66607">
        <ele>229</ele>
        <time>2020-03-10T19:34:59Z</time>
      </trkpt>
      <trkpt lat="45.54465" lon="4.66593">
        <ele>223</ele>
        <time>2020-03-10T19:35:15Z</time>
      </trkpt>
      <trkpt lat="45.54417" lon="4.66568">
        <ele>223</ele>
        <time>2020-03-10T19:35:24Z</time>
      </trkpt>
      <trkpt lat="45.54415" lon="4.66466">
        <ele>227</ele>
        <time>2020-03-10T19:35:37Z</time>
      </trkpt>
      <trkpt lat="45.544" lon="4.66325">
        <ele>226</ele>
        <time>2020-03-10T19:35:55Z</time>
      </trkpt>
      <trkpt lat="45.54396" lon="4.66207">
        <ele>226</ele>
        <time>2020-03-10T19:36:10Z</time>
      </trkpt>
      <trkpt lat="45.54436" lon="4.66076">
        <ele>231</ele>
        <time>2020-03-10T19:36:27Z</time>
      </trkpt>
      <trkpt lat="45.54434" lon="4.65917">
        <ele>232</ele>
        <time>2020-03-10T19:36:47Z</time>
      </trkpt>
      <trkpt lat="45.54385" lon="4.65695">
        <ele>231</ele>
        <time>2020-03-10T19:37:16Z</time>
      </trkpt>
      <trkpt lat="45.54354" lon="4.6562">
        <ele>232</ele>
        <time>2020-03-10T19:37:27Z</time>
      </trkpt>
      <trkpt lat="45.54283" lon="4.65466">
        <ele>228</ele>
        <time>2020-03-10T19:37:50Z</time>
      </trkpt>
      <trkpt lat="45.54279" lon="4.65396">
        <ele>229</ele>
        <time>2020-03-10T19:37:59Z</time>
      </trkpt>
      <trkpt lat="45.54333" lon="4.6524">
        <ele>233</ele>
        <time>2020-03-10T19:38:20Z</time>
      </trkpt>
      <trkpt lat="45.54348" lon="4.65123">
        <ele>233</ele>
        <time>2020-03-10T19:38:35Z</time>
      </trkpt>
      <trkpt lat="45.54339" lon="4.64939">
        <ele>233</ele>
        <time>2020-03-10T19:38:58Z</time>
      </trkpt>
      <trkpt lat="45.54294" lon="4.64755">
        <ele>234</ele>
        <time>2020-03-10T19:39:23Z</time>
      </trkpt>
      <trkpt lat="45.54255" lon="4.64608">
        <ele>229</ele>
        <time>2020-03-10T19:39:42Z</time>
      </trkpt>
      <trkpt lat="45.54286" lon="4.644">
        <ele>234</ele>
        <time>2020-03-10T19:40:09Z</time>
      </trkpt>
      <trkpt lat="45.54274" lon="4.64349">
        <ele>232</ele>
        <time>2020-03-10T19:40:15Z</time>
      </trkpt>
      <trkpt lat="45.54237" lon="4.64247">
        <ele>231</ele>
        <time>2020-03-10T19:40:30Z</time>
      </trkpt>
      <trkpt lat="45.53782" lon="4.63623">
        <ele>231</ele>
        <time>2020-03-10T19:42:22Z</time>
      </trkpt>
      <trkpt lat="45.53597" lon="4.63374">
        <ele>234</ele>
        <time>2020-03-10T19:43:07Z</time>
      </trkpt>
      <trkpt lat="45.53509" lon="4.63288">
        <ele>232</ele>
        <time>2020-03-10T19:43:26Z</time>
      </trkpt>
      <trkpt lat="45.53474" lon="4.63236">
        <ele>233</ele>
        <time>2020-03-10T19:43:35Z</time>
      </trkpt>
      <trkpt lat="45.53404" lon="4.63143">
        <ele>230</ele>
        <time>2020-03-10T19:43:52Z</time>
      </trkpt>
      <trkpt lat="45.53291" lon="4.62962">
        <ele>232</ele>
        <time>2020-03-10T19:44:22Z</time>
      </trkpt>
      <trkpt lat="45.53226" lon="4.62742">
        <ele>235</ele>
        <time>2020-03-10T19:44:52Z</time>
      </trkpt>
      <trkpt lat="45.5309" lon="4.62304">
        <ele>236</ele>
        <time>2020-03-10T19:45:52Z</time>
      </trkpt>
      <trkpt lat="45.53062" lon="4.62309">
        <ele>237</ele>
        <time>2020-03-10T19:45:57Z</time>
      </trkpt>
      <trkpt lat="45.53011" lon="4.62347">
        <ele>239</ele>
        <time>2020-03-10T19:46:07Z</time>
      </trkpt>
      <trkpt lat="45.5299" lon="4.6241">
        <ele>237</ele>
        <time>2020-03-10T19:46:16Z</time>
      </trkpt>
      <trkpt lat="45.5285" lon="4.62402">
        <ele>242</ele>
        <time>2020-03-10T19:46:41Z</time>
      </trkpt>
      <trkpt lat="45.52716" lon="4.62445">
        <ele>244</ele>
        <time>2020-03-10T19:47:05Z</time>
      </trkpt>
      <trkpt lat="45.52644" lon="4.62475">
        <ele>244</ele>
        <time>2020-03-10T19:47:18Z</time>
      </trkpt>
      <trkpt lat="45.52563" lon="4.62536">
        <ele>251</ele>
        <time>2020-03-10T19:47:35Z</time>
      </trkpt>
      <trkpt lat="45.52518" lon="4.62534">
        <ele>251</ele>
        <time>2020-03-10T19:47:43Z</time>
      </trkpt>
      <trkpt lat="45.52463" lon="4.62504">
        <ele>248</ele>
        <time>2020-03-10T19:47:53Z</time>
      </trkpt>
      <trkpt lat="45.52409" lon="4.62445">
        <ele>249</ele>
        <time>2020-03-10T19:48:05Z</time>
      </trkpt>
      <trkpt lat="45.52371" lon="4.62444">
        <ele>251</ele>
        <time>2020-03-10T19:48:12Z</time>
      </trkpt>
      <trkpt lat="45.52279" lon="4.62455">
        <ele>255</ele>
        <time>2020-03-10T19:48:29Z</time>
      </trkpt>
      <trkpt lat="45.52234" lon="4.62479">
        <ele>257</ele>
        <time>2020-03-10T19:48:37Z</time>
      </trkpt>
      <trkpt lat="45.52164" lon="4.62548">
        <ele>261</ele>
        <time>2020-03-10T19:48:52Z</time>
      </trkpt>
      <trkpt lat="45.52149" lon="4.62601">
        <ele>270</ele>
        <time>2020-03-10T19:48:59Z</time>
      </trkpt>
      <trkpt lat="45.52073" lon="4.62633">
        <ele>271</ele>
        <time>2020-03-10T19:49:13Z</time>
      </trkpt>
      <trkpt lat="45.51949" lon="4.62626">
        <ele>265</ele>
        <time>2020-03-10T19:49:36Z</time>
      </trkpt>
      <trkpt lat="45.51926" lon="4.62676">
        <ele>271</ele>
        <time>2020-03-10T19:49:43Z</time>
      </trkpt>
      <trkpt lat="45.51881" lon="4.62697">
        <ele>270</ele>
        <time>2020-03-10T19:49:51Z</time>
      </trkpt>
      <trkpt lat="45.51857" lon="4.62742">
        <ele>274</ele>
        <time>2020-03-10T19:49:58Z</time>
      </trkpt>
      <trkpt lat="45.51825" lon="4.62766">
        <ele>275</ele>
        <time>2020-03-10T19:50:05Z</time>
      </trkpt>
      <trkpt lat="45.51699" lon="4.62797">
        <ele>280</ele>
        <time>2020-03-10T19:50:28Z</time>
      </trkpt>
      <trkpt lat="45.51645" lon="4.62871">
        <ele>286</ele>
        <time>2020-03-10T19:50:41Z</time>
      </trkpt>
      <trkpt lat="45.51557" lon="4.62896">
        <ele>285</ele>
        <time>2020-03-10T19:50:57Z</time>
      </trkpt>
      <trkpt lat="45.51466" lon="4.62866">
        <ele>282</ele>
        <time>2020-03-10T19:51:14Z</time>
      </trkpt>
      <trkpt lat="45.51391" lon="4.63016">
        <ele>295</ele>
        <time>2020-03-10T19:51:37Z</time>
      </trkpt>
      <trkpt lat="45.51278" lon="4.62899">
        <ele>288</ele>
        <time>2020-03-10T19:52:01Z</time>
      </trkpt>
      <trkpt lat="45.51206" lon="4.62932">
        <ele>294</ele>
        <time>2020-03-10T19:52:15Z</time>
      </trkpt>
      <trkpt lat="45.51163" lon="4.6293">
        <ele>296</ele>
        <time>2020-03-10T19:52:22Z</time>
      </trkpt>
      <trkpt lat="45.51019" lon="4.62942">
        <ele>311</ele>
        <time>2020-03-10T19:52:48Z</time>
      </trkpt>
      <trkpt lat="45.50981" lon="4.62869">
        <ele>308</ele>
        <time>2020-03-10T19:52:59Z</time>
      </trkpt>
      <trkpt lat="45.50922" lon="4.62838">
        <ele>306</ele>
        <time>2020-03-10T19:53:11Z</time>
      </trkpt>
      <trkpt lat="45.50851" lon="4.62812">
        <ele>311</ele>
        <time>2020-03-10T19:53:24Z</time>
      </trkpt>
      <trkpt lat="45.50824" lon="4.62725">
        <ele>305</ele>
        <time>2020-03-10T19:53:36Z</time>
      </trkpt>
      <trkpt lat="45.50787" lon="4.62764">
        <ele>309</ele>
        <time>2020-03-10T19:53:44Z</time>
      </trkpt>
      <trkpt lat="45.5076" lon="4.62942">
        <ele>324</ele>
        <time>2020-03-10T19:54:06Z</time>
      </trkpt>
      <trkpt lat="45.50727" lon="4.62973">
        <ele>325</ele>
        <time>2020-03-10T19:54:14Z</time>
      </trkpt>
      <trkpt lat="45.50665" lon="4.62958">
        <ele>317</ele>
        <time>2020-03-10T19:54:25Z</time>
      </trkpt>
      <trkpt lat="45.50552" lon="4.63086">
        <ele>326</ele>
        <time>2020-03-10T19:54:50Z</time>
      </trkpt>
      <trkpt lat="45.50475" lon="4.63167">
        <ele>328</ele>
        <time>2020-03-10T19:55:07Z</time>
      </trkpt>
      <trkpt lat="45.50485" lon="4.63301">
        <ele>343</ele>
        <time>2020-03-10T19:55:24Z</time>
      </trkpt>
      <trkpt lat="45.50449" lon="4.63312">
        <ele>345</ele>
        <time>2020-03-10T19:55:31Z</time>
      </trkpt>
      <trkpt lat="45.5043" lon="4.63255">
        <ele>333</ele>
        <time>2020-03-10T19:55:39Z</time>
      </trkpt>
      <trkpt lat="45.504" lon="4.63231">
        <ele>329</ele>
        <time>2020-03-10T19:55:45Z</time>
      </trkpt>
      <trkpt lat="45.50322" lon="4.63276">
        <ele>343</ele>
        <time>2020-03-10T19:56:00Z</time>
      </trkpt>
      <trkpt lat="45.50265" lon="4.63269">
        <ele>349</ele>
        <time>2020-03-10T19:56:10Z</time>
      </trkpt>
      <trkpt lat="45.50218" lon="4.6318">
        <ele>334</ele>
        <time>2020-03-10T19:56:24Z</time>
      </trkpt>
      <trkpt lat="45.5009" lon="4.63218">
        <ele>351</ele>
        <time>2020-03-10T19:56:47Z</time>
      </trkpt>
      <trkpt lat="45.50046" lon="4.63162">
        <ele>348</ele>
        <time>2020-03-10T19:56:58Z</time>
      </trkpt>
      <trkpt lat="45.50012" lon="4.6313">
        <ele>353</ele>
        <time>2020-03-10T19:57:05Z</time>
      </trkpt>
      <trkpt lat="45.49991" lon="4.6305">
        <ele>348</ele>
        <time>2020-03-10T19:57:15Z</time>
      </trkpt>
      <trkpt lat="45.49939" lon="4.63028">
        <ele>354</ele>
        <time>2020-03-10T19:57:25Z</time>
      </trkpt>
      <trkpt lat="45.49854" lon="4.62976">
        <ele>356</ele>
        <time>2020-03-10T19:57:42Z</time>
      </trkpt>
      <trkpt lat="45.49769" lon="4.62996">
        <ele>371</ele>
        <time>2020-03-10T19:57:57Z</time>
      </trkpt>
      <trkpt lat="45.49732" lon="4.62886">
        <ele>367</ele>
        <time>2020-03-10T19:58:12Z</time>
      </trkpt>
      <trkpt lat="45.49685" lon="4.62808">
        <ele>374</ele>
        <time>2020-03-10T19:58:25Z</time>
      </trkpt>
      <trkpt lat="45.49683" lon="4.62721">
        <ele>366</ele>
        <time>2020-03-10T19:58:36Z</time>
      </trkpt>
      <trkpt lat="45.4966" lon="4.62693">
        <ele>367</ele>
        <time>2020-03-10T19:58:41Z</time>
      </trkpt>
      <trkpt lat="45.49594" lon="4.62658">
        <ele>368</ele>
        <time>2020-03-10T19:58:54Z</time>
      </trkpt>
      <trkpt lat="45.49513" lon="4.62668">
        <ele>370</ele>
        <time>2020-03-10T19:59:08Z</time>
      </trkpt>
      <trkpt lat="45.49448" lon="4.62698">
        <ele>378</ele>
        <time>2020-03-10T19:59:20Z</time>
      </trkpt>
      <trkpt lat="45.49342" lon="4.62686">
        <ele>389</ele>
        <time>2020-03-10T19:59:39Z</time>
      </trkpt>
      <trkpt lat="45.49318" lon="4.62555">
        <ele>371</ele>
        <time>2020-03-10T19:59:56Z</time>
      </trkpt>
      <trkpt lat="45.4922" lon="4.62519">
        <ele>371</ele>
        <time>2020-03-10T20:00:14Z</time>
      </trkpt>
      <trkpt lat="45.49184" lon="4.62539">
        <ele>368</ele>
        <time>2020-03-10T20:00:21Z</time>
      </trkpt>
      <trkpt lat="45.49168" lon="4.62704">
        <ele>381</ele>
        <time>2020-03-10T20:00:42Z</time>
      </trkpt>
      <trkpt lat="45.4913" lon="4.6279">
        <ele>389</ele>
        <time>2020-03-10T20:00:54Z</time>
      </trkpt>
      <trkpt lat="45.49051" lon="4.62776">
        <ele>382</ele>
        <time>2020-03-10T20:01:09Z</time>
      </trkpt>
      <trkpt lat="45.48987" lon="4.62751">
        <ele>381</ele>
        <time>2020-03-10T20:01:20Z</time>
      </trkpt>
      <trkpt lat="45.48921" lon="4.62758">
        <ele>378</ele>
        <time>2020-03-10T20:01:32Z</time>
      </trkpt>
      <trkpt lat="45.48885" lon="4.6293">
        <ele>385</ele>
        <time>2020-03-10T20:01:55Z</time>
      </trkpt>
      <trkpt lat="45.4886" lon="4.63236">
        <ele>387</ele>
        <time>2020-03-10T20:02:33Z</time>
      </trkpt>
      <trkpt lat="45.48893" lon="4.63309">
        <ele>392</ele>
        <time>2020-03-10T20:02:44Z</time>
      </trkpt>
      <trkpt lat="45.48931" lon="4.63374">
        <ele>399</ele>
        <time>2020-03-10T20:02:54Z</time>
      </trkpt>
      <trkpt lat="45.48921" lon="4.63424">
        <ele>396</ele>
        <time>2020-03-10T20:03:01Z</time>
      </trkpt>
      <trkpt lat="45.48889" lon="4.63439">
        <ele>397</ele>
        <time>2020-03-10T20:03:07Z</time>
      </trkpt>
      <trkpt lat="45.48835" lon="4.63411">
        <ele>391</ele>
        <time>2020-03-10T20:03:17Z</time>
      </trkpt>
      <trkpt lat="45.48788" lon="4.63447">
        <ele>395</ele>
        <time>2020-03-10T20:03:27Z</time>
      </trkpt>
      <trkpt lat="45.48753" lon="4.63459">
        <ele>395</ele>
        <time>2020-03-10T20:03:33Z</time>
      </trkpt>
      <trkpt lat="45.48702" lon="4.63495">
        <ele>399</ele>
        <time>2020-03-10T20:03:43Z</time>
      </trkpt>
      <trkpt lat="45.48634" lon="4.63515">
        <ele>403</ele>
        <time>2020-03-10T20:03:55Z</time>
      </trkpt>
      <trkpt lat="45.48561" lon="4.63491">
        <ele>402</ele>
        <time>2020-03-10T20:04:09Z</time>
      </trkpt>
      <trkpt lat="45.48481" lon="4.63447">
        <ele>399</ele>
        <time>2020-03-10T20:04:24Z</time>
      </trkpt>
      <trkpt lat="45.48426" lon="4.63468">
        <ele>404</ele>
        <time>2020-03-10T20:04:34Z</time>
      </trkpt>
      <trkpt lat="45.48354" lon="4.63503">
        <ele>408</ele>
        <time>2020-03-10T20:04:48Z</time>
      </trkpt>
      <trkpt lat="45.48286" lon="4.63493">
        <ele>407</ele>
        <time>2020-03-10T20:05:00Z</time>
      </trkpt>
      <trkpt lat="45.48225" lon="4.6346">
        <ele>403</ele>
        <time>2020-03-10T20:05:12Z</time>
      </trkpt>
      <trkpt lat="45.48179" lon="4.63474">
        <ele>402</ele>
        <time>2020-03-10T20:05:20Z</time>
      </trkpt>
      <trkpt lat="45.48203" lon="4.63558">
        <ele>405</ele>
        <time>2020-03-10T20:05:31Z</time>
      </trkpt>
      <trkpt lat="45.4827" lon="4.6364">
        <ele>411</ele>
        <time>2020-03-10T20:05:47Z</time>
      </trkpt>
      <trkpt lat="45.48283" lon="4.63784">
        <ele>412</ele>
        <time>2020-03-10T20:06:05Z</time>
      </trkpt>
      <trkpt lat="45.48305" lon="4.63864">
        <ele>419</ele>
        <time>2020-03-10T20:06:16Z</time>
      </trkpt>
      <trkpt lat="45.48242" lon="4.63884">
        <ele>411</ele>
        <time>2020-03-10T20:06:27Z</time>
      </trkpt>
      <trkpt lat="45.48204" lon="4.63949">
        <ele>414</ele>
        <time>2020-03-10T20:06:38Z</time>
      </trkpt>
      <trkpt lat="45.48205" lon="4.64013">
        <ele>421</ele>
        <time>2020-03-10T20:06:46Z</time>
      </trkpt>
      <trkpt lat="45.48159" lon="4.64055">
        <ele>419</ele>
        <time>2020-03-10T20:06:55Z</time>
      </trkpt>
      <trkpt lat="45.48094" lon="4.64085">
        <ele>417</ele>
        <time>2020-03-10T20:07:08Z</time>
      </trkpt>
      <trkpt lat="45.48023" lon="4.64105">
        <ele>413</ele>
        <time>2020-03-10T20:07:21Z</time>
      </trkpt>
      <trkpt lat="45.48004" lon="4.6425">
        <ele>414</ele>
        <time>2020-03-10T20:07:39Z</time>
      </trkpt>
      <trkpt lat="45.48023" lon="4.64299">
        <ele>417</ele>
        <time>2020-03-10T20:07:46Z</time>
      </trkpt>
      <trkpt lat="45.48062" lon="4.64337">
        <ele>423</ele>
        <time>2020-03-10T20:07:54Z</time>
      </trkpt>
      <trkpt lat="45.48078" lon="4.64393">
        <ele>420</ele>
        <time>2020-03-10T20:08:02Z</time>
      </trkpt>
      <trkpt lat="45.48112" lon="4.64441">
        <ele>426</ele>
        <time>2020-03-10T20:08:10Z</time>
      </trkpt>
      <trkpt lat="45.48133" lon="4.64518">
        <ele>430</ele>
        <time>2020-03-10T20:08:21Z</time>
      </trkpt>
      <trkpt lat="45.48114" lon="4.64581">
        <ele>427</ele>
        <time>2020-03-10T20:08:29Z</time>
      </trkpt>
      <trkpt lat="45.48032" lon="4.64673">
        <ele>424</ele>
        <time>2020-03-10T20:08:48Z</time>
      </trkpt>
      <trkpt lat="45.48019" lon="4.64743">
        <ele>429</ele>
        <time>2020-03-10T20:08:57Z</time>
      </trkpt>
      <trkpt lat="45.47998" lon="4.64772">
        <ele>427</ele>
        <time>2020-03-10T20:09:02Z</time>
      </trkpt>
      <trkpt lat="45.47976" lon="4.64769">
        <ele>428</ele>
        <time>2020-03-10T20:09:06Z</time>
      </trkpt>
      <trkpt lat="45.47944" lon="4.64744">
        <ele>426</ele>
        <time>2020-03-10T20:09:12Z</time>
      </trkpt>
      <trkpt lat="45.47914" lon="4.647">
        <ele>423</ele>
        <time>2020-03-10T20:09:20Z</time>
      </trkpt>
      <trkpt lat="45.47882" lon="4.64698">
        <ele>425</ele>
        <time>2020-03-10T20:09:26Z</time>
      </trkpt>
      <trkpt lat="45.47795" lon="4.64642">
        <ele>435</ele>
        <time>2020-03-10T20:09:43Z</time>
      </trkpt>
      <trkpt lat="45.47727" lon="4.64629">
        <ele>443</ele>
        <time>2020-03-10T20:09:55Z</time>
      </trkpt>
      <trkpt lat="45.47616" lon="4.64563">
        <ele>457</ele>
        <time>2020-03-10T20:10:16Z</time>
      </trkpt>
      <trkpt lat="45.47525" lon="4.64497">
        <ele>466</ele>
        <time>2020-03-10T20:10:35Z</time>
      </trkpt>
      <trkpt lat="45.47456" lon="4.64442">
        <ele>474</ele>
        <time>2020-03-10T20:10:49Z</time>
      </trkpt>
      <trkpt lat="45.47461" lon="4.64419">
        <ele>478</ele>
        <time>2020-03-10T20:10:52Z</time>
      </trkpt>
      <trkpt lat="45.47541" lon="4.64449">
        <ele>477</ele>
        <time>2020-03-10T20:11:06Z</time>
      </trkpt>
      <trkpt lat="45.47567" lon="4.6445">
        <ele>478</ele>
        <time>2020-03-10T20:11:11Z</time>
      </trkpt>
      <trkpt lat="45.47611" lon="4.64428">
        <ele>480</ele>
        <time>2020-03-10T20:11:19Z</time>
      </trkpt>
      <trkpt lat="45.47632" lon="4.64383">
        <ele>482</ele>
        <time>2020-03-10T20:11:26Z</time>
      </trkpt>
      <trkpt lat="45.47572" lon="4.64115">
        <ele>499</ele>
        <time>2020-03-10T20:12:01Z</time>
      </trkpt>
      <trkpt lat="45.4754" lon="4.64008">
        <ele>510</ele>
        <time>2020-03-10T20:12:16Z</time>
      </trkpt>
      <trkpt lat="45.47525" lon="4.63894">
        <ele>512</ele>
        <time>2020-03-10T20:12:30Z</time>
      </trkpt>
      <trkpt lat="45.47437" lon="4.63864">
        <ele>519</ele>
        <time>2020-03-10T20:12:46Z</time>
      </trkpt>
      <trkpt lat="45.47296" lon="4.63906">
        <ele>530</ele>
        <time>2020-03-10T20:13:12Z</time>
      </trkpt>
      <trkpt lat="45.47168" lon="4.63775">
        <ele>529</ele>
        <time>2020-03-10T20:13:40Z</time>
      </trkpt>
      <trkpt lat="45.47071" lon="4.63739">
        <ele>529</ele>
        <time>2020-03-10T20:13:58Z</time>
      </trkpt>
      <trkpt lat="45.46992" lon="4.63699">
        <ele>529</ele>
        <time>2020-03-10T20:14:13Z</time>
      </trkpt>
      <trkpt lat="45.46907" lon="4.63628">
        <ele>528</ele>
        <time>2020-03-10T20:14:30Z</time>
      </trkpt>
      <trkpt lat="45.46828" lon="4.63513">
        <ele>530</ele>
        <time>2020-03-10T20:14:50Z</time>
      </trkpt>
      <trkpt lat="45.46782" lon="4.63382">
        <ele>521</ele>
        <time>2020-03-10T20:15:09Z</time>
      </trkpt>
      <trkpt lat="45.46747" lon="4.63336">
        <ele>520</ele>
        <time>2020-03-10T20:15:17Z</time>
      </trkpt>
      <trkpt lat="45.46683" lon="4.63314">
        <ele>521</ele>
        <time>2020-03-10T20:15:29Z</time>
      </trkpt>
      <trkpt lat="45.46612" lon="4.63223">
        <ele>522</ele>
        <time>2020-03-10T20:15:46Z</time>
      </trkpt>
      <trkpt lat="45.46674" lon="4.63117">
        <ele>512</ele>
        <time>2020-03-10T20:16:03Z</time>
      </trkpt>
      <trkpt lat="45.46667" lon="4.6301">
        <ele>515</ele>
        <time>2020-03-10T20:16:16Z</time>
      </trkpt>
      <trkpt lat="45.46642" lon="4.62961">
        <ele>520</ele>
        <time>2020-03-10T20:16:24Z</time>
      </trkpt>
      <trkpt lat="45.46629" lon="4.62895">
        <ele>520</ele>
        <time>2020-03-10T20:16:32Z</time>
      </trkpt>
      <trkpt lat="45.46534" lon="4.62713">
        <ele>529</ele>
        <time>2020-03-10T20:17:01Z</time>
      </trkpt>
      <trkpt lat="45.46424" lon="4.62617">
        <ele>539</ele>
        <time>2020-03-10T20:17:24Z</time>
      </trkpt>
      <trkpt lat="45.46314" lon="4.62633">
        <ele>561</ele>
        <time>2020-03-10T20:17:43Z</time>
      </trkpt>
      <trkpt lat="45.46267" lon="4.62693">
        <ele>575</ele>
        <time>2020-03-10T20:17:55Z</time>
      </trkpt>
      <trkpt lat="45.4625" lon="4.62754">
        <ele>581</ele>
        <time>2020-03-10T20:18:03Z</time>
      </trkpt>
      <trkpt lat="45.4623" lon="4.62793">
        <ele>589</ele>
        <time>2020-03-10T20:18:09Z</time>
      </trkpt>
      <trkpt lat="45.46199" lon="4.62805">
        <ele>592</ele>
        <time>2020-03-10T20:18:15Z</time>
      </trkpt>
      <trkpt lat="45.46176" lon="4.62776">
        <ele>591</ele>
        <time>2020-03-10T20:18:20Z</time>
      </trkpt>
      <trkpt lat="45.46188" lon="4.62658">
        <ele>596</ele>
        <time>2020-03-10T20:18:35Z</time>
      </trkpt>
      <trkpt lat="45.46221" lon="4.62565">
        <ele>595</ele>
        <time>2020-03-10T20:18:48Z</time>
      </trkpt>
      <trkpt lat="45.46204" lon="4.62466">
        <ele>598</ele>
        <time>2020-03-10T20:19:01Z</time>
      </trkpt>
      <trkpt lat="45.4612" lon="4.62337">
        <ele>611</ele>
        <time>2020-03-10T20:19:23Z</time>
      </trkpt>
      <trkpt lat="45.46092" lon="4.6227">
        <ele>618</ele>
        <time>2020-03-10T20:19:32Z</time>
      </trkpt>
      <trkpt lat="45.46117" lon="4.6217">
        <ele>618</ele>
        <time>2020-03-10T20:19:46Z</time>
      </trkpt>
      <trkpt lat="45.46142" lon="4.62113">
        <ele>623</ele>
        <time>2020-03-10T20:19:54Z</time>
      </trkpt>
      <trkpt lat="45.46225" lon="4.62095">
        <ele>626</ele>
        <time>2020-03-10T20:20:09Z</time>
      </trkpt>
      <trkpt lat="45.46303" lon="4.62088">
        <ele>635</ele>
        <time>2020-03-10T20:20:23Z</time>
      </trkpt>
      <trkpt lat="45.46146" lon="4.62012">
        <ele>646</ele>
        <time>2020-03-10T20:20:52Z</time>
      </trkpt>
      <trkpt lat="45.46076" lon="4.61987">
        <ele>651</ele>
        <time>2020-03-10T20:21:05Z</time>
      </trkpt>
      <trkpt lat="45.46053" lon="4.61959">
        <ele>653</ele>
        <time>2020-03-10T20:21:10Z</time>
      </trkpt>
      <trkpt lat="45.46034" lon="4.61969">
        <ele>653</ele>
        <time>2020-03-10T20:21:14Z</time>
      </trkpt>
      <trkpt lat="45.4599" lon="4.61923">
        <ele>649</ele>
        <time>2020-03-10T20:21:24Z</time>
      </trkpt>
      <trkpt lat="45.45793" lon="4.61853">
        <ele>642</ele>
        <time>2020-03-10T20:22:00Z</time>
      </trkpt>
      <trkpt lat="45.45699" lon="4.61838">
        <ele>637</ele>
        <time>2020-03-10T20:22:17Z</time>
      </trkpt>
      <trkpt lat="45.45656" lon="4.61857">
        <ele>635</ele>
        <time>2020-03-10T20:22:25Z</time>
      </trkpt>
      <trkpt lat="45.45571" lon="4.61959">
        <ele>636</ele>
        <time>2020-03-10T20:22:45Z</time>
      </trkpt>
      <trkpt lat="45.45515" lon="4.61931">
        <ele>636</ele>
        <time>2020-03-10T20:22:55Z</time>
      </trkpt>
      <trkpt lat="45.45474" lon="4.6188">
        <ele>634</ele>
        <time>2020-03-10T20:23:05Z</time>
      </trkpt>
      <trkpt lat="45.45446" lon="4.61795">
        <ele>625</ele>
        <time>2020-03-10T20:23:16Z</time>
      </trkpt>
      <trkpt lat="45.45397" lon="4.6175">
        <ele>623</ele>
        <time>2020-03-10T20:23:27Z</time>
      </trkpt>
      <trkpt lat="45.45368" lon="4.61744">
        <ele>626</ele>
        <time>2020-03-10T20:23:32Z</time>
      </trkpt>
      <trkpt lat="45.45339" lon="4.61689">
        <ele>621</ele>
        <time>2020-03-10T20:23:41Z</time>
      </trkpt>
      <trkpt lat="45.45337" lon="4.61649">
        <ele>617</ele>
        <time>2020-03-10T20:23:46Z</time>
      </trkpt>
      <trkpt lat="45.45304" lon="4.61604">
        <ele>615</ele>
        <time>2020-03-10T20:23:54Z</time>
      </trkpt>
      <trkpt lat="45.45259" lon="4.61571">
        <ele>613</ele>
        <time>2020-03-10T20:24:03Z</time>
      </trkpt>
      <trkpt lat="45.45221" lon="4.61568">
        <ele>609</ele>
        <time>2020-03-10T20:24:10Z</time>
      </trkpt>
      <trkpt lat="45.451" lon="4.61658">
        <ele>610</ele>
        <time>2020-03-10T20:24:34Z</time>
      </trkpt>
      <trkpt lat="45.45066" lon="4.61645">
        <ele>611</ele>
        <time>2020-03-10T20:24:40Z</time>
      </trkpt>
      <trkpt lat="45.45058" lon="4.61586">
        <ele>608</ele>
        <time>2020-03-10T20:24:48Z</time>
      </trkpt>
      <trkpt lat="45.4508" lon="4.61459">
        <ele>602</ele>
        <time>2020-03-10T20:25:04Z</time>
      </trkpt>
      <trkpt lat="45.45104" lon="4.61406">
        <ele>598</ele>
        <time>2020-03-10T20:25:12Z</time>
      </trkpt>
      <trkpt lat="45.45124" lon="4.61191">
        <ele>595</ele>
        <time>2020-03-10T20:25:39Z</time>
      </trkpt>
      <trkpt lat="45.45167" lon="4.61094">
        <ele>588</ele>
        <time>2020-03-10T20:25:53Z</time>
      </trkpt>
      <trkpt lat="45.45124" lon="4.60929">
        <ele>585</ele>
        <time>2020-03-10T20:26:15Z</time>
      </trkpt>
      <trkpt lat="45.45097" lon="4.60927">
        <ele>591</ele>
        <time>2020-03-10T20:26:20Z</time>
      </trkpt>
      <trkpt lat="45.45063" lon="4.6086">
        <ele>590</ele>
        <time>2020-03-10T20:26:30Z</time>
      </trkpt>
      <trkpt lat="45.45012" lon="4.6075">
        <ele>601</ele>
        <time>2020-03-10T20:26:47Z</time>
      </trkpt>
      <trkpt lat="45.45029" lon="4.60554">
        <ele>598</ele>
        <time>2020-03-10T20:27:11Z</time>
      </trkpt>
      <trkpt lat="45.45017" lon="4.60497">
        <ele>598</ele>
        <time>2020-03-10T20:27:19Z</time>
      </trkpt>
      <trkpt lat="45.44872" lon="4.60346">
        <ele>611</ele>
        <time>2020-03-10T20:27:51Z</time>
      </trkpt>
      <trkpt lat="45.44765" lon="4.60146">
        <ele>616</ele>
        <time>2020-03-10T20:28:22Z</time>
      </trkpt>
      <trkpt lat="45.44728" lon="4.60171">
        <ele>615</ele>
        <time>2020-03-10T20:28:29Z</time>
      </trkpt>
      <trkpt lat="45.44722" lon="4.60265">
        <ele>623</ele>
        <time>2020-03-10T20:28:41Z</time>
      </trkpt>
      <trkpt lat="45.44663" lon="4.60386">
        <ele>636</ele>
        <time>2020-03-10T20:29:00Z</time>
      </trkpt>
      <trkpt lat="45.4456" lon="4.6062">
        <ele>649</ele>
        <time>2020-03-10T20:29:34Z</time>
      </trkpt>
      <trkpt lat="45.44488" lon="4.60686">
        <ele>653</ele>
        <time>2020-03-10T20:29:49Z</time>
      </trkpt>
      <trkpt lat="45.44419" lon="4.60759">
        <ele>656</ele>
        <time>2020-03-10T20:30:05Z</time>
      </trkpt>
      <trkpt lat="45.44377" lon="4.60862">
        <ele>661</ele>
        <time>2020-03-10T20:30:20Z</time>
      </trkpt>
      <trkpt lat="45.44311" lon="4.6101">
        <ele>669</ele>
        <time>2020-03-10T20:30:41Z</time>
      </trkpt>
      <trkpt lat="45.44287" lon="4.61142">
        <ele>673</ele>
        <time>2020-03-10T20:30:58Z</time>
      </trkpt>
      <trkpt lat="45.44315" lon="4.61361">
        <ele>690</ele>
        <time>2020-03-10T20:31:26Z</time>
      </trkpt>
      <trkpt lat="45.44308" lon="4.6149">
        <ele>697</ele>
        <time>2020-03-10T20:31:42Z</time>
      </trkpt>
      <trkpt lat="45.44284" lon="4.61571">
        <ele>701</ele>
        <time>2020-03-10T20:31:53Z</time>
      </trkpt>
      <trkpt lat="45.44239" lon="4.61637">
        <ele>701</ele>
        <time>2020-03-10T20:32:05Z</time>
      </trkpt>
      <trkpt lat="45.44202" lon="4.61735">
        <ele>705</ele>
        <time>2020-03-10T20:32:19Z</time>
      </trkpt>
      <trkpt lat="45.44175" lon="4.61864">
        <ele>709</ele>
        <time>2020-03-10T20:32:36Z</time>
      </trkpt>
      <trkpt lat="45.44184" lon="4.61939">
        <ele>718</ele>
        <time>2020-03-10T20:32:45Z</time>
      </trkpt>
      <trkpt lat="45.44182" lon="4.62045">
        <ele>725</ele>
        <time>2020-03-10T20:32:58Z</time>
      </trkpt>
      <trkpt lat="45.44148" lon="4.6222">
        <ele>731</ele>
        <time>2020-03-10T20:33:21Z</time>
      </trkpt>
      <trkpt lat="45.44146" lon="4.62269">
        <ele>735</ele>
        <time>2020-03-10T20:33:27Z</time>
      </trkpt>
      <trkpt lat="45.44172" lon="4.62254">
        <ele>734</ele>
        <time>2020-03-10T20:33:32Z</time>
      </trkpt>
      <trkpt lat="45.44178" lon="4.62181">
        <ele>734</ele>
        <time>2020-03-10T20:33:41Z</time>
      </trkpt>
      <trkpt lat="45.44236" lon="4.61955">
        <ele>740</ele>
        <time>2020-03-10T20:34:11Z</time>
      </trkpt>
      <trkpt lat="45.44298" lon="4.61799">
        <ele>743</ele>
        <time>2020-03-10T20:34:34Z</time>
      </trkpt>
      <trkpt lat="45.44376" lon="4.61751">
        <ele>757</ele>
        <time>2020-03-10T20:34:49Z</time>
      </trkpt>
      <trkpt lat="45.44374" lon="4.61794">
        <ele>764</ele>
        <time>2020-03-10T20:34:54Z</time>
      </trkpt>
      <trkpt lat="45.44328" lon="4.61817">
        <ele>755</ele>
        <time>2020-03-10T20:35:03Z</time>
      </trkpt>
      <trkpt lat="45.44313" lon="4.61865">
        <ele>758</ele>
        <time>2020-03-10T20:35:09Z</time>
      </trkpt>
      <trkpt lat="45.44281" lon="4.62">
        <ele>762</ele>
        <time>2020-03-10T20:35:27Z</time>
      </trkpt>
      <trkpt lat="45.44283" lon="4.62234">
        <ele>775</ele>
        <time>2020-03-10T20:35:56Z</time>
      </trkpt>
      <trkpt lat="45.44315" lon="4.62437">
        <ele>788</ele>
        <time>2020-03-10T20:36:22Z</time>
      </trkpt>
      <trkpt lat="45.44404" lon="4.62768">
        <ele>795</ele>
        <time>2020-03-10T20:37:07Z</time>
      </trkpt>
      <trkpt lat="45.44465" lon="4.62837">
        <ele>800</ele>
        <time>2020-03-10T20:37:21Z</time>
      </trkpt>
      <trkpt lat="45.44553" lon="4.62885">
        <ele>806</ele>
        <time>2020-03-10T20:37:37Z</time>
      </trkpt>
      <trkpt lat="45.44597" lon="4.62978">
        <ele>805</ele>
        <time>2020-03-10T20:37:51Z</time>
      </trkpt>
      <trkpt lat="45.44589" lon="4.63076">
        <ele>807</ele>
        <time>2020-03-10T20:38:04Z</time>
      </trkpt>
      <trkpt lat="45.44524" lon="4.63229">
        <ele>812</ele>
        <time>2020-03-10T20:38:26Z</time>
      </trkpt>
      <trkpt lat="45.44515" lon="4.63335">
        <ele>811</ele>
        <time>2020-03-10T20:38:39Z</time>
      </trkpt>
      <trkpt lat="45.44531" lon="4.63486">
        <ele>803</ele>
        <time>2020-03-10T20:38:58Z</time>
      </trkpt>
      <trkpt lat="45.4459" lon="4.6381">
        <ele>789</ele>
        <time>2020-03-10T20:39:40Z</time>
      </trkpt>
      <trkpt lat="45.44648" lon="4.64184">
        <ele>780</ele>
        <time>2020-03-10T20:40:28Z</time>
      </trkpt>
      <trkpt lat="45.44674" lon="4.6487">
        <ele>750</ele>
        <time>2020-03-10T20:41:54Z</time>
      </trkpt>
      <trkpt lat="45.44634" lon="4.64985">
        <ele>748</ele>
        <time>2020-03-10T20:42:10Z</time>
      </trkpt>
      <trkpt lat="45.44585" lon="4.65038">
        <ele>741</ele>
        <time>2020-03-10T20:42:21Z</time>
      </trkpt>
      <trkpt lat="45.44577" lon="4.65006">
        <ele>733</ele>
        <time>2020-03-10T20:42:25Z</time>
      </trkpt>
      <trkpt lat="45.44613" lon="4.64936">
        <ele>735</ele>
        <time>2020-03-10T20:42:36Z</time>
      </trkpt>
      <trkpt lat="45.44628" lon="4.64821">
        <ele>731</ele>
        <time>2020-03-10T20:42:50Z</time>
      </trkpt>
      <trkpt lat="45.44451" lon="4.64148">
        <ele>697</ele>
        <time>2020-03-10T20:44:20Z</time>
      </trkpt>
      <trkpt lat="45.44417" lon="4.64092">
        <ele>691</ele>
        <time>2020-03-10T20:44:29Z</time>
      </trkpt>
      <trkpt lat="45.44373" lon="4.64075">
        <ele>687</ele>
        <time>2020-03-10T20:44:37Z</time>
      </trkpt>
      <trkpt lat="45.443" lon="4.64089">
        <ele>684</ele>
        <time>2020-03-10T20:44:50Z</time>
      </trkpt>
      <trkpt lat="45.44203" lon="4.64161">
        <ele>684</ele>
        <time>2020-03-10T20:45:10Z</time>
      </trkpt>
      <trkpt lat="45.4408" lon="4.64316">
        <ele>670</ele>
        <time>2020-03-10T20:45:39Z</time>
      </trkpt>
      <trkpt lat="45.43986" lon="4.64342">
        <ele>669</ele>
        <time>2020-03-10T20:45:56Z</time>
      </trkpt>
      <trkpt lat="45.43935" lon="4.6439">
        <ele>659</ele>
        <time>2020-03-10T20:46:07Z</time>
      </trkpt>
      <trkpt lat="45.43844" lon="4.64457">
        <ele>657</ele>
        <time>2020-03-10T20:46:25Z</time>
      </trkpt>
      <trkpt lat="45.43797" lon="4.64497">
        <ele>657</ele>
        <time>2020-03-10T20:46:35Z</time>
      </trkpt>
      <trkpt lat="45.43736" lon="4.6461">
        <ele>641</ele>
        <time>2020-03-10T20:46:53Z</time>
      </trkpt>
      <trkpt lat="45.43639" lon="4.64664">
        <ele>640</ele>
        <time>2020-03-10T20:47:11Z</time>
      </trkpt>
      <trkpt lat="45.43487" lon="4.64835">
        <ele>631</ele>
        <time>2020-03-10T20:47:46Z</time>
      </trkpt>
      <trkpt lat="45.43357" lon="4.65012">
        <ele>621</ele>
        <time>2020-03-10T20:48:18Z</time>
      </trkpt>
      <trkpt lat="45.43185" lon="4.65234">
        <ele>607</ele>
        <time>2020-03-10T20:48:59Z</time>
      </trkpt>
      <trkpt lat="45.43132" lon="4.65447">
        <ele>587</ele>
        <time>2020-03-10T20:49:27Z</time>
      </trkpt>
      <trkpt lat="45.4311" lon="4.65512">
        <ele>584</ele>
        <time>2020-03-10T20:49:36Z</time>
      </trkpt>
      <trkpt lat="45.4306" lon="4.65555">
        <ele>581</ele>
        <time>2020-03-10T20:49:47Z</time>
      </trkpt>
      <trkpt lat="45.42959" lon="4.65543">
        <ele>580</ele>
        <time>2020-03-10T20:50:05Z</time>
      </trkpt>
      <trkpt lat="45.42918" lon="4.65569">
        <ele>578</ele>
        <time>2020-03-10T20:50:13Z</time>
      </trkpt>
      <trkpt lat="45.42897" lon="4.65632">
        <ele>579</ele>
        <time>2020-03-10T20:50:21Z</time>
      </trkpt>
      <trkpt lat="45.42917" lon="4.65783">
        <ele>573</ele>
        <time>2020-03-10T20:50:41Z</time>
      </trkpt>
      <trkpt lat="45.42902" lon="4.65862">
        <ele>567</ele>
        <time>2020-03-10T20:50:51Z</time>
      </trkpt>
      <trkpt lat="45.42868" lon="4.65923">
        <ele>565</ele>
        <time>2020-03-10T20:51:01Z</time>
      </trkpt>
      <trkpt lat="45.42819" lon="4.66029">
        <ele>559</ele>
        <time>2020-03-10T20:51:16Z</time>
      </trkpt>
      <trkpt lat="45.42798" lon="4.66089">
        <ele>553</ele>
        <time>2020-03-10T20:51:25Z</time>
      </trkpt>
      <trkpt lat="45.42767" lon="4.66125">
        <ele>549</ele>
        <time>2020-03-10T20:51:32Z</time>
      </trkpt>
      <trkpt lat="45.42728" lon="4.66102">
        <ele>551</ele>
        <time>2020-03-10T20:51:39Z</time>
      </trkpt>
      <trkpt lat="45.42676" lon="4.66065">
        <ele>552</ele>
        <time>2020-03-10T20:51:50Z</time>
      </trkpt>
      <trkpt lat="45.42578" lon="4.66037">
        <ele>551</ele>
        <time>2020-03-10T20:52:08Z</time>
      </trkpt>
      <trkpt lat="45.42509" lon="4.66056">
        <ele>546</ele>
        <time>2020-03-10T20:52:20Z</time>
      </trkpt>
      <trkpt lat="45.42594" lon="4.66077">
        <ele>541</ele>
        <time>2020-03-10T20:52:35Z</time>
      </trkpt>
      <trkpt lat="45.42643" lon="4.66085">
        <ele>544</ele>
        <time>2020-03-10T20:52:44Z</time>
      </trkpt>
      <trkpt lat="45.42731" lon="4.66148">
        <ele>544</ele>
        <time>2020-03-10T20:53:02Z</time>
      </trkpt>
      <trkpt lat="45.42809" lon="4.66187">
        <ele>538</ele>
        <time>2020-03-10T20:53:16Z</time>
      </trkpt>
      <trkpt lat="45.42867" lon="4.66126">
        <ele>541</ele>
        <time>2020-03-10T20:53:29Z</time>
      </trkpt>
      <trkpt lat="45.42898" lon="4.66063">
        <ele>543</ele>
        <time>2020-03-10T20:53:39Z</time>
      </trkpt>
      <trkpt lat="45.42904" lon="4.65977">
        <ele>550</ele>
        <time>2020-03-10T20:53:50Z</time>
      </trkpt>
      <trkpt lat="45.42951" lon="4.65908">
        <ele>549</ele>
        <time>2020-03-10T20:54:02Z</time>
      </trkpt>
      <trkpt lat="45.43005" lon="4.6582">
        <ele>548</ele>
        <time>2020-03-10T20:54:16Z</time>
      </trkpt>
      <trkpt lat="45.43079" lon="4.65721">
        <ele>552</ele>
        <time>2020-03-10T20:54:34Z</time>
      </trkpt>
      <trkpt lat="45.43145" lon="4.65724">
        <ele>549</ele>
        <time>2020-03-10T20:54:46Z</time>
      </trkpt>
      <trkpt lat="45.43202" lon="4.65703">
        <ele>547</ele>
        <time>2020-03-10T20:54:57Z</time>
      </trkpt>
      <trkpt lat="45.43255" lon="4.65597">
        <ele>553</ele>
        <time>2020-03-10T20:55:13Z</time>
      </trkpt>
      <trkpt lat="45.43296" lon="4.6554">
        <ele>555</ele>
        <time>2020-03-10T20:55:23Z</time>
      </trkpt>
      <trkpt lat="45.43416" lon="4.65445">
        <ele>553</ele>
        <time>2020-03-10T20:55:47Z</time>
      </trkpt>
      <trkpt lat="45.43491" lon="4.65279">
        <ele>559</ele>
        <time>2020-03-10T20:56:12Z</time>
      </trkpt>
      <trkpt lat="45.43586" lon="4.65274">
        <ele>555</ele>
        <time>2020-03-10T20:56:29Z</time>
      </trkpt>
      <trkpt lat="45.43751" lon="4.65163">
        <ele>559</ele>
        <time>2020-03-10T20:57:01Z</time>
      </trkpt>
      <trkpt lat="45.43899" lon="4.65306">
        <ele>561</ele>
        <time>2020-03-10T20:57:33Z</time>
      </trkpt>
      <trkpt lat="45.43898" lon="4.6541">
        <ele>562</ele>
        <time>2020-03-10T20:57:46Z</time>
      </trkpt>
      <trkpt lat="45.43902" lon="4.65486">
        <ele>559</ele>
        <time>2020-03-10T20:57:56Z</time>
      </trkpt>
      <trkpt lat="45.43955" lon="4.65572">
        <ele>565</ele>
        <time>2020-03-10T20:58:10Z</time>
      </trkpt>
      <trkpt lat="45.44028" lon="4.65719">
        <ele>565</ele>
        <time>2020-03-10T20:58:33Z</time>
      </trkpt>
      <trkpt lat="45.44083" lon="4.65838">
        <ele>568</ele>
        <time>2020-03-10T20:58:50Z</time>
      </trkpt>
      <trkpt lat="45.44105" lon="4.66031">
        <ele>573</ele>
        <time>2020-03-10T20:59:15Z</time>
      </trkpt>
      <trkpt lat="45.44049" lon="4.6608">
        <ele>570</ele>
        <time>2020-03-10T20:59:26Z</time>
      </trkpt>
      <trkpt lat="45.43976" lon="4.66102">
        <ele>569</ele>
        <time>2020-03-10T20:59:40Z</time>
      </trkpt>
      <trkpt lat="45.43929" lon="4.66188">
        <ele>571</ele>
        <time>2020-03-10T20:59:53Z</time>
      </trkpt>
      <trkpt lat="45.43919" lon="4.66281">
        <ele>572</ele>
        <time>2020-03-10T21:00:05Z</time>
      </trkpt>
      <trkpt lat="45.43939" lon="4.66376">
        <ele>573</ele>
        <time>2020-03-10T21:00:17Z</time>
      </trkpt>
      <trkpt lat="45.44026" lon="4.6652">
        <ele>585</ele>
        <time>2020-03-10T21:00:41Z</time>
      </trkpt>
      <trkpt lat="45.44035" lon="4.66867">
        <ele>587</ele>
        <time>2020-03-10T21:01:25Z</time>
      </trkpt>
      <trkpt lat="45.44075" lon="4.67003">
        <ele>588</ele>
        <time>2020-03-10T21:01:43Z</time>
      </trkpt>
      <trkpt lat="45.44136" lon="4.67106">
        <ele>585</ele>
        <time>2020-03-10T21:02:00Z</time>
      </trkpt>
      <trkpt lat="45.44213" lon="4.67147">
        <ele>590</ele>
        <time>2020-03-10T21:02:14Z</time>
      </trkpt>
      <trkpt lat="45.44283" lon="4.67143">
        <ele>600</ele>
        <time>2020-03-10T21:02:27Z</time>
      </trkpt>
      <trkpt lat="45.44364" lon="4.67199">
        <ele>596</ele>
        <time>2020-03-10T21:02:43Z</time>
      </trkpt>
      <trkpt lat="45.4445" lon="4.67222">
        <ele>605</ele>
        <time>2020-03-10T21:02:58Z</time>
      </trkpt>
      <trkpt lat="45.44573" lon="4.6749">
        <ele>607</ele>
        <time>2020-03-10T21:03:38Z</time>
      </trkpt>
      <trkpt lat="45.44665" lon="4.67657">
        <ele>609</ele>
        <time>2020-03-10T21:04:05Z</time>
      </trkpt>
      <trkpt lat="45.44709" lon="4.6782">
        <ele>610</ele>
        <time>2020-03-10T21:04:27Z</time>
      </trkpt>
      <trkpt lat="45.44856" lon="4.68169">
        <ele>615</ele>
        <time>2020-03-10T21:05:18Z</time>
      </trkpt>
      <trkpt lat="45.44905" lon="4.6827">
        <ele>614</ele>
        <time>2020-03-10T21:05:33Z</time>
      </trkpt>
      <trkpt lat="45.44971" lon="4.68327">
        <ele>615</ele>
        <time>2020-03-10T21:05:47Z</time>
      </trkpt>
      <trkpt lat="45.45031" lon="4.68315">
        <ele>619</ele>
        <time>2020-03-10T21:05:57Z</time>
      </trkpt>
      <trkpt lat="45.45107" lon="4.68255">
        <ele>630</ele>
        <time>2020-03-10T21:06:13Z</time>
      </trkpt>
      <trkpt lat="45.45196" lon="4.68303">
        <ele>618</ele>
        <time>2020-03-10T21:06:30Z</time>
      </trkpt>
      <trkpt lat="45.45278" lon="4.6817">
        <ele>637</ele>
        <time>2020-03-10T21:06:52Z</time>
      </trkpt>
      <trkpt lat="45.45328" lon="4.68145">
        <ele>636</ele>
        <time>2020-03-10T21:07:01Z</time>
      </trkpt>
      <trkpt lat="45.45507" lon="4.68226">
        <ele>639</ele>
        <time>2020-03-10T21:07:35Z</time>
      </trkpt>
      <trkpt lat="45.45601" lon="4.68303">
        <ele>641</ele>
        <time>2020-03-10T21:07:54Z</time>
      </trkpt>
      <trkpt lat="45.45668" lon="4.68384">
        <ele>636</ele>
        <time>2020-03-10T21:08:10Z</time>
      </trkpt>
      <trkpt lat="45.45748" lon="4.68402">
        <ele>640</ele>
        <time>2020-03-10T21:08:24Z</time>
      </trkpt>
      <trkpt lat="45.45835" lon="4.68374">
        <ele>642</ele>
        <time>2020-03-10T21:08:40Z</time>
      </trkpt>
      <trkpt lat="45.45892" lon="4.68312">
        <ele>653</ele>
        <time>2020-03-10T21:08:53Z</time>
      </trkpt>
      <trkpt lat="45.45978" lon="4.68304">
        <ele>646</ele>
        <time>2020-03-10T21:09:08Z</time>
      </trkpt>
      <trkpt lat="45.4604" lon="4.68259">
        <ele>653</ele>
        <time>2020-03-10T21:09:20Z</time>
      </trkpt>
      <trkpt lat="45.46135" lon="4.68217">
        <ele>644</ele>
        <time>2020-03-10T21:09:38Z</time>
      </trkpt>
      <trkpt lat="45.46217" lon="4.68056">
        <ele>665</ele>
        <time>2020-03-10T21:10:03Z</time>
      </trkpt>
      <trkpt lat="45.46457" lon="4.67843">
        <ele>658</ele>
        <time>2020-03-10T21:10:53Z</time>
      </trkpt>
      <trkpt lat="45.4645" lon="4.679">
        <ele>656</ele>
        <time>2020-03-10T21:11:00Z</time>
      </trkpt>
      <trkpt lat="45.46478" lon="4.68085">
        <ele>647</ele>
        <time>2020-03-10T21:11:24Z</time>
      </trkpt>
      <trkpt lat="45.46489" lon="4.68283">
        <ele>638</ele>
        <time>2020-03-10T21:11:49Z</time>
      </trkpt>
      <trkpt lat="45.4646" lon="4.68549">
        <ele>621</ele>
        <time>2020-03-10T21:12:22Z</time>
      </trkpt>
      <trkpt lat="45.46446" lon="4.68724">
        <ele>615</ele>
        <time>2020-03-10T21:12:44Z</time>
      </trkpt>
      <trkpt lat="45.464" lon="4.68922">
        <ele>603</ele>
        <time>2020-03-10T21:13:10Z</time>
      </trkpt>
      <trkpt lat="45.46396" lon="4.68858">
        <ele>599</ele>
        <time>2020-03-10T21:13:18Z</time>
      </trkpt>
      <trkpt lat="45.46406" lon="4.6865">
        <ele>596</ele>
        <time>2020-03-10T21:13:44Z</time>
      </trkpt>
      <trkpt lat="45.46353" lon="4.68343">
        <ele>589</ele>
        <time>2020-03-10T21:14:24Z</time>
      </trkpt>
      <trkpt lat="45.46303" lon="4.6835">
        <ele>584</ele>
        <time>2020-03-10T21:14:33Z</time>
      </trkpt>
      <trkpt lat="45.46232" lon="4.68378">
        <ele>581</ele>
        <time>2020-03-10T21:14:46Z</time>
      </trkpt>
      <trkpt lat="45.46173" lon="4.68429">
        <ele>573</ele>
        <time>2020-03-10T21:14:58Z</time>
      </trkpt>
      <trkpt lat="45.46058" lon="4.6856">
        <ele>559</ele>
        <time>2020-03-10T21:15:24Z</time>
      </trkpt>
      <trkpt lat="45.45993" lon="4.68571">
        <ele>563</ele>
        <time>2020-03-10T21:15:36Z</time>
      </trkpt>
      <trkpt lat="45.45942" lon="4.68671">
        <ele>552</ele>
        <time>2020-03-10T21:15:51Z</time>
      </trkpt>
      <trkpt lat="45.45927" lon="4.68738">
        <ele>539</ele>
        <time>2020-03-10T21:16:00Z</time>
      </trkpt>
      <trkpt lat="45.45886" lon="4.68754">
        <ele>537</ele>
        <time>2020-03-10T21:16:08Z</time>
      </trkpt>
      <trkpt lat="45.45805" lon="4.68747">
        <ele>538</ele>
        <time>2020-03-10T21:16:22Z</time>
      </trkpt>
      <trkpt lat="45.45744" lon="4.68774">
        <ele>533</ele>
        <time>2020-03-10T21:16:34Z</time>
      </trkpt>
      <trkpt lat="45.45727" lon="4.68861">
        <ele>520</ele>
        <time>2020-03-10T21:16:45Z</time>
      </trkpt>
      <trkpt lat="45.45698" lon="4.68887">
        <ele>517</ele>
        <time>2020-03-10T21:16:51Z</time>
      </trkpt>
      <trkpt lat="45.45595" lon="4.68847">
        <ele>510</ele>
        <time>2020-03-10T21:17:10Z</time>
      </trkpt>
      <trkpt lat="45.45521" lon="4.68758">
        <ele>510</ele>
        <time>2020-03-10T21:17:27Z</time>
      </trkpt>
      <trkpt lat="45.45441" lon="4.68706">
        <ele>508</ele>
        <time>2020-03-10T21:17:43Z</time>
      </trkpt>
      <trkpt lat="45.45378" lon="4.68728">
        <ele>498</ele>
        <time>2020-03-10T21:17:54Z</time>
      </trkpt>
      <trkpt lat="45.45362" lon="4.68751">
        <ele>493</ele>
        <time>2020-03-10T21:17:58Z</time>
      </trkpt>
      <trkpt lat="45.45411" lon="4.68797">
        <ele>491</ele>
        <time>2020-03-10T21:18:09Z</time>
      </trkpt>
      <trkpt lat="45.4547" lon="4.68911">
        <ele>484</ele>
        <time>2020-03-10T21:18:27Z</time>
      </trkpt>
      <trkpt lat="45.45528" lon="4.69051">
        <ele>475</ele>
        <time>2020-03-10T21:18:47Z</time>
      </trkpt>
      <trkpt lat="45.45547" lon="4.69179">
        <ele>466</ele>
        <time>2020-03-10T21:19:03Z</time>
      </trkpt>
      <trkpt lat="45.45584" lon="4.69307">
        <ele>458</ele>
        <time>2020-03-10T21:19:20Z</time>
      </trkpt>
      <trkpt lat="45.45658" lon="4.69349">
        <ele>459</ele>
        <time>2020-03-10T21:19:35Z</time>
      </trkpt>
      <trkpt lat="45.45701" lon="4.69395">
        <ele>456</ele>
        <time>2020-03-10T21:19:44Z</time>
      </trkpt>
      <trkpt lat="45.45793" lon="4.6946">
        <ele>449</ele>
        <time>2020-03-10T21:20:02Z</time>
      </trkpt>
      <trkpt lat="45.45842" lon="4.69506">
        <ele>445</ele>
        <time>2020-03-10T21:20:13Z</time>
      </trkpt>
      <trkpt lat="45.45855" lon="4.69559">
        <ele>444</ele>
        <time>2020-03-10T21:20:20Z</time>
      </trkpt>
      <trkpt lat="45.45842" lon="4.69663">
        <ele>439</ele>
        <time>2020-03-10T21:20:33Z</time>
      </trkpt>
      <trkpt lat="45.45795" lon="4.69826">
        <ele>429</ele>
        <time>2020-03-10T21:20:55Z</time>
      </trkpt>
      <trkpt lat="45.4578" lon="4.69913">
        <ele>423</ele>
        <time>2020-03-10T21:21:06Z</time>
      </trkpt>
      <trkpt lat="45.4579" lon="4.70024">
        <ele>420</ele>
        <time>2020-03-10T21:21:20Z</time>
      </trkpt>
      <trkpt lat="45.45766" lon="4.70122">
        <ele>414</ele>
        <time>2020-03-10T21:21:33Z</time>
      </trkpt>
      <trkpt lat="45.45755" lon="4.70261">
        <ele>407</ele>
        <time>2020-03-10T21:21:51Z</time>
      </trkpt>
      <trkpt lat="45.45737" lon="4.70374">
        <ele>400</ele>
        <time>2020-03-10T21:22:05Z</time>
      </trkpt>
      <trkpt lat="45.45729" lon="4.70461">
        <ele>397</ele>
        <time>2020-03-10T21:22:16Z</time>
      </trkpt>
      <trkpt lat="45.45741" lon="4.70579">
        <ele>390</ele>
        <time>2020-03-10T21:22:31Z</time>
      </trkpt>
      <trkpt lat="45.45736" lon="4.70674">
        <ele>387</ele>
        <time>2020-03-10T21:22:43Z</time>
      </trkpt>
      <trkpt lat="45.45756" lon="4.70734">
        <ele>386</ele>
        <time>2020-03-10T21:22:51Z</time>
      </trkpt>
      <trkpt lat="45.45781" lon="4.7085">
        <ele>387</ele>
        <time>2020-03-10T21:23:06Z</time>
      </trkpt>
      <trkpt lat="45.45849" lon="4.70899">
        <ele>389</ele>
        <time>2020-03-10T21:23:20Z</time>
      </trkpt>
      <trkpt lat="45.45912" lon="4.70927">
        <ele>389</ele>
        <time>2020-03-10T21:23:32Z</time>
      </trkpt>
      <trkpt lat="45.45985" lon="4.71068">
        <ele>391</ele>
        <time>2020-03-10T21:23:53Z</time>
      </trkpt>
      <trkpt lat="45.46026" lon="4.71252">
        <ele>393</ele>
        <time>2020-03-10T21:24:18Z</time>
      </trkpt>
      <trkpt lat="45.46094" lon="4.71359">
        <ele>396</ele>
        <time>2020-03-10T21:24:36Z</time>
      </trkpt>
      <trkpt lat="45.46149" lon="4.71462">
        <ele>398</ele>
        <time>2020-03-10T21:24:52Z</time>
      </trkpt>
      <trkpt lat="45.46182" lon="4.71514">
        <ele>399</ele>
        <time>2020-03-10T21:25:00Z</time>
      </trkpt>
      <trkpt lat="45.4622" lon="4.71679">
        <ele>401</ele>
        <time>2020-03-10T21:25:22Z</time>
      </trkpt>
      <trkpt lat="45.46253" lon="4.71778">
        <ele>403</ele>
        <time>2020-03-10T21:25:36Z</time>
      </trkpt>
      <trkpt lat="45.46305" lon="4.71857">
        <ele>404</ele>
        <time>2020-03-10T21:25:49Z</time>
      </trkpt>
      <trkpt lat="45.46346" lon="4.71887">
        <ele>402</ele>
        <time>2020-03-10T21:25:58Z</time>
      </trkpt>
      <trkpt lat="45.46445" lon="4.71891">
        <ele>404</ele>
        <time>2020-03-10T21:26:15Z</time>
      </trkpt>
      <trkpt lat="45.46587" lon="4.72002">
        <ele>402</ele>
        <time>2020-03-10T21:26:44Z</time>
      </trkpt>
      <trkpt lat="45.46715" lon="4.72109">
        <ele>398</ele>
        <time>2020-03-10T21:27:10Z</time>
      </trkpt>
      <trkpt lat="45.46786" lon="4.72107">
        <ele>399</ele>
        <time>2020-03-10T21:27:23Z</time>
      </trkpt>
      <trkpt lat="45.4686" lon="4.72108">
        <ele>397</ele>
        <time>2020-03-10T21:27:36Z</time>
      </trkpt>
      <trkpt lat="45.46921" lon="4.72057">
        <ele>398</ele>
        <time>2020-03-10T21:27:49Z</time>
      </trkpt>
      <trkpt lat="45.46949" lon="4.71944">
        <ele>401</ele>
        <time>2020-03-10T21:28:04Z</time>
      </trkpt>
      <trkpt lat="45.46971" lon="4.71795">
        <ele>403</ele>
        <time>2020-03-10T21:28:23Z</time>
      </trkpt>
      <trkpt lat="45.47029" lon="4.71785">
        <ele>400</ele>
        <time>2020-03-10T21:28:33Z</time>
      </trkpt>
      <trkpt lat="45.47076" lon="4.71853">
        <ele>401</ele>
        <time>2020-03-10T21:28:45Z</time>
      </trkpt>
      <trkpt lat="45.47193" lon="4.72143">
        <ele>408</ele>
        <time>2020-03-10T21:29:27Z</time>
      </trkpt>
      <trkpt lat="45.47254" lon="4.72208">
        <ele>411</ele>
        <time>2020-03-10T21:29:40Z</time>
      </trkpt>
      <trkpt lat="45.4735" lon="4.7229">
        <ele>415</ele>
        <time>2020-03-10T21:30:00Z</time>
      </trkpt>
      <trkpt lat="45.47419" lon="4.72398">
        <ele>420</ele>
        <time>2020-03-10T21:30:18Z</time>
      </trkpt>
      <trkpt lat="45.475" lon="4.72479">
        <ele>422</ele>
        <time>2020-03-10T21:30:36Z</time>
      </trkpt>
      <trkpt lat="45.47623" lon="4.7254">
        <ele>422</ele>
        <time>2020-03-10T21:30:59Z</time>
      </trkpt>
      <trkpt lat="45.47764" lon="4.72576">
        <ele>425</ele>
        <time>2020-03-10T21:31:25Z</time>
      </trkpt>
      <trkpt lat="45.47902" lon="4.72584">
        <ele>430</ele>
        <time>2020-03-10T21:31:49Z</time>
      </trkpt>
      <trkpt lat="45.4805" lon="4.72555">
        <ele>427</ele>
        <time>2020-03-10T21:32:16Z</time>
      </trkpt>
      <trkpt lat="45.48096" lon="4.72532">
        <ele>425</ele>
        <time>2020-03-10T21:32:25Z</time>
      </trkpt>
      <trkpt lat="45.48161" lon="4.72469">
        <ele>425</ele>
        <time>2020-03-10T21:32:39Z</time>
      </trkpt>
      <trkpt lat="45.48254" lon="4.72436">
        <ele>422</ele>
        <time>2020-03-10T21:32:56Z</time>
      </trkpt>
      <trkpt lat="45.48362" lon="4.72489">
        <ele>426</ele>
        <time>2020-03-10T21:33:16Z</time>
      </trkpt>
      <trkpt lat="45.48431" lon="4.72479">
        <ele>429</ele>
        <time>2020-03-10T21:33:28Z</time>
      </trkpt>
      <trkpt lat="45.48525" lon="4.72385">
        <ele>437</ele>
        <time>2020-03-10T21:33:49Z</time>
      </trkpt>
      <trkpt lat="45.48597" lon="4.72335">
        <ele>442</ele>
        <time>2020-03-10T21:34:03Z</time>
      </trkpt>
      <trkpt lat="45.48667" lon="4.72278">
        <ele>450</ele>
        <time>2020-03-10T21:34:17Z</time>
      </trkpt>
      <trkpt lat="45.48771" lon="4.7224">
        <ele>451</ele>
        <time>2020-03-10T21:34:36Z</time>
      </trkpt>
      <trkpt lat="45.48859" lon="4.72156">
        <ele>456</ele>
        <time>2020-03-10T21:34:55Z</time>
      </trkpt>
      <trkpt lat="45.48913" lon="4.72039">
        <ele>467</ele>
        <time>2020-03-10T21:35:13Z</time>
      </trkpt>
      <trkpt lat="45.48973" lon="4.72011">
        <ele>467</ele>
        <time>2020-03-10T21:35:24Z</time>
      </trkpt>
      <trkpt lat="45.49066" lon="4.71992">
        <ele>465</ele>
        <time>2020-03-10T21:35:41Z</time>
      </trkpt>
      <trkpt lat="45.4914" lon="4.7197">
        <ele>468</ele>
        <time>2020-03-10T21:35:54Z</time>
      </trkpt>
      <trkpt lat="45.49205" lon="4.71947">
        <ele>469</ele>
        <time>2020-03-10T21:36:06Z</time>
      </trkpt>
      <trkpt lat="45.49252" lon="4.71872">
        <ele>475</ele>
        <time>2020-03-10T21:36:19Z</time>
      </trkpt>
      <trkpt lat="45.49305" lon="4.71761">
        <ele>481</ele>
        <time>2020-03-10T21:36:35Z</time>
      </trkpt>
      <trkpt lat="45.4937" lon="4.71737">
        <ele>477</ele>
        <time>2020-03-10T21:36:47Z</time>
      </trkpt>
      <trkpt lat="45.49439" lon="4.71677">
        <ele>477</ele>
        <time>2020-03-10T21:37:02Z</time>
      </trkpt>
      <trkpt lat="45.49475" lon="4.71712">
        <ele>474</ele>
        <time>2020-03-10T21:37:09Z</time>
      </trkpt>
      <trkpt lat="45.49515" lon="4.71791">
        <ele>472</ele>
        <time>2020-03-10T21:37:22Z</time>
      </trkpt>
      <trkpt lat="45.49562" lon="4.71846">
        <ele>475</ele>
        <time>2020-03-10T21:37:32Z</time>
      </trkpt>
      <trkpt lat="45.4959" lon="4.7193">
        <ele>473</ele>
        <time>2020-03-10T21:37:44Z</time>
      </trkpt>
      <trkpt lat="45.49619" lon="4.71992">
        <ele>473</ele>
        <time>2020-03-10T21:37:53Z</time>
      </trkpt>
      <trkpt lat="45.49646" lon="4.72165">
        <ele>471</ele>
        <time>2020-03-10T21:38:15Z</time>
      </trkpt>
      <trkpt lat="45.49699" lon="4.72197">
        <ele>469</ele>
        <time>2020-03-10T21:38:26Z</time>
      </trkpt>
      <trkpt lat="45.49821" lon="4.72204">
        <ele>466</ele>
        <time>2020-03-10T21:38:47Z</time>
      </trkpt>
      <trkpt lat="45.49936" lon="4.72201">
        <ele>460</ele>
        <time>2020-03-10T21:39:08Z</time>
      </trkpt>
      <trkpt lat="45.50008" lon="4.72128">
        <ele>458</ele>
        <time>2020-03-10T21:39:24Z</time>
      </trkpt>
      <trkpt lat="45.50054" lon="4.72043">
        <ele>454</ele>
        <time>2020-03-10T21:39:37Z</time>
      </trkpt>
      <trkpt lat="45.50046" lon="4.7195">
        <ele>460</ele>
        <time>2020-03-10T21:39:49Z</time>
      </trkpt>
      <trkpt lat="45.50128" lon="4.71891">
        <ele>451</ele>
        <time>2020-03-10T21:40:05Z</time>
      </trkpt>
      <trkpt lat="45.50149" lon="4.71802">
        <ele>458</ele>
        <time>2020-03-10T21:40:17Z</time>
      </trkpt>
      <trkpt lat="45.50192" lon="4.71848">
        <ele>450</ele>
        <time>2020-03-10T21:40:26Z</time>
      </trkpt>
      <trkpt lat="45.50233" lon="4.71868">
        <ele>447</ele>
        <time>2020-03-10T21:40:34Z</time>
      </trkpt>
      <trkpt lat="45.50321" lon="4.71816">
        <ele>456</ele>
        <time>2020-03-10T21:40:51Z</time>
      </trkpt>
      <trkpt lat="45.50357" lon="4.71982">
        <ele>446</ele>
        <time>2020-03-10T21:41:13Z</time>
      </trkpt>
      <trkpt lat="45.50425" lon="4.71977">
        <ele>449</ele>
        <time>2020-03-10T21:41:25Z</time>
      </trkpt>
      <trkpt lat="45.50493" lon="4.71938">
        <ele>453</ele>
        <time>2020-03-10T21:41:38Z</time>
      </trkpt>
      <trkpt lat="45.50537" lon="4.72026">
        <ele>442</ele>
        <time>2020-03-10T21:41:51Z</time>
      </trkpt>
      <trkpt lat="45.50595" lon="4.72028">
        <ele>443</ele>
        <time>2020-03-10T21:42:01Z</time>
      </trkpt>
      <trkpt lat="45.50679" lon="4.7199">
        <ele>446</ele>
        <time>2020-03-10T21:42:17Z</time>
      </trkpt>
      <trkpt lat="45.50706" lon="4.72182">
        <ele>439</ele>
        <time>2020-03-10T21:42:42Z</time>
      </trkpt>
      <trkpt lat="45.50756" lon="4.72236">
        <ele>442</ele>
        <time>2020-03-10T21:42:53Z</time>
      </trkpt>
      <trkpt lat="45.50808" lon="4.72238">
        <ele>442</ele>
        <time>2020-03-10T21:43:02Z</time>
      </trkpt>
      <trkpt lat="45.50872" lon="4.72191">
        <ele>441</ele>
        <time>2020-03-10T21:43:15Z</time>
      </trkpt>
      <trkpt lat="45.50937" lon="4.72135">
        <ele>440</ele>
        <time>2020-03-10T21:43:28Z</time>
      </trkpt>
      <trkpt lat="45.50984" lon="4.72114">
        <ele>437</ele>
        <time>2020-03-10T21:43:37Z</time>
      </trkpt>
      <trkpt lat="45.5102" lon="4.72164">
        <ele>432</ele>
        <time>2020-03-10T21:43:46Z</time>
      </trkpt>
      <trkpt lat="45.51043" lon="4.7224">
        <ele>425</ele>
        <time>2020-03-10T21:43:56Z</time>
      </trkpt>
      <trkpt lat="45.5112" lon="4.72223">
        <ele>425</ele>
        <time>2020-03-10T21:44:10Z</time>
      </trkpt>
      <trkpt lat="45.51214" lon="4.72162">
        <ele>423</ele>
        <time>2020-03-10T21:44:29Z</time>
      </trkpt>
      <trkpt lat="45.51383" lon="4.72121">
        <ele>416</ele>
        <time>2020-03-10T21:44:59Z</time>
      </trkpt>
      <trkpt lat="45.51457" lon="4.72122">
        <ele>414</ele>
        <time>2020-03-10T21:45:12Z</time>
      </trkpt>
      <trkpt lat="45.51543" lon="4.72153">
        <ele>410</ele>
        <time>2020-03-10T21:45:28Z</time>
      </trkpt>
      <trkpt lat="45.51561" lon="4.7221">
        <ele>409</ele>
        <time>2020-03-10T21:45:36Z</time>
      </trkpt>
      <trkpt lat="45.51599" lon="4.72268">
        <ele>412</ele>
        <time>2020-03-10T21:45:46Z</time>
      </trkpt>
      <trkpt lat="45.51531" lon="4.72429">
        <ele>418</ele>
        <time>2020-03-10T21:46:09Z</time>
      </trkpt>
      <trkpt lat="45.51522" lon="4.72495">
        <ele>421</ele>
        <time>2020-03-10T21:46:18Z</time>
      </trkpt>
      <trkpt lat="45.51554" lon="4.72549">
        <ele>423</ele>
        <time>2020-03-10T21:46:26Z</time>
      </trkpt>
      <trkpt lat="45.5161" lon="4.72581">
        <ele>427</ele>
        <time>2020-03-10T21:46:37Z</time>
      </trkpt>
      <trkpt lat="45.51638" lon="4.72651">
        <ele>428</ele>
        <time>2020-03-10T21:46:47Z</time>
      </trkpt>
      <trkpt lat="45.51626" lon="4.7282">
        <ele>431</ele>
        <time>2020-03-10T21:47:08Z</time>
      </trkpt>
      <trkpt lat="45.51615" lon="4.73163">
        <ele>443</ele>
        <time>2020-03-10T21:47:51Z</time>
      </trkpt>
      <trkpt lat="45.51629" lon="4.73236">
        <ele>446</ele>
        <time>2020-03-10T21:48:01Z</time>
      </trkpt>
      <trkpt lat="45.5169" lon="4.73309">
        <ele>451</ele>
        <time>2020-03-10T21:48:15Z</time>
      </trkpt>
      <trkpt lat="45.51815" lon="4.73408">
        <ele>455</ele>
        <time>2020-03-10T21:48:40Z</time>
      </trkpt>
      <trkpt lat="45.51884" lon="4.73481">
        <ele>460</ele>
        <time>2020-03-10T21:48:55Z</time>
      </trkpt>
      <trkpt lat="45.51919" lon="4.73553">
        <ele>464</ele>
        <time>2020-03-10T21:49:06Z</time>
      </trkpt>
      <trkpt lat="45.51911" lon="4.73641">
        <ele>471</ele>
        <time>2020-03-10T21:49:17Z</time>
      </trkpt>
      <trkpt lat="45.51915" lon="4.73733">
        <ele>476</ele>
        <time>2020-03-10T21:49:29Z</time>
      </trkpt>
      <trkpt lat="45.51913" lon="4.73844">
        <ele>484</ele>
        <time>2020-03-10T21:49:43Z</time>
      </trkpt>
      <trkpt lat="45.52009" lon="4.73888">
        <ele>485</ele>
        <time>2020-03-10T21:50:01Z</time>
      </trkpt>
      <trkpt lat="45.52107" lon="4.73911">
        <ele>486</ele>
        <time>2020-03-10T21:50:18Z</time>
      </trkpt>
      <trkpt lat="45.52154" lon="4.73962">
        <ele>489</ele>
        <time>2020-03-10T21:50:29Z</time>
      </trkpt>
      <trkpt lat="45.52189" lon="4.74093">
        <ele>495</ele>
        <time>2020-03-10T21:50:46Z</time>
      </trkpt>
      <trkpt lat="45.52216" lon="4.74255">
        <ele>498</ele>
        <time>2020-03-10T21:51:07Z</time>
      </trkpt>
      <trkpt lat="45.52229" lon="4.74351">
        <ele>500</ele>
        <time>2020-03-10T21:51:19Z</time>
      </trkpt>
      <trkpt lat="45.5228" lon="4.7435">
        <ele>502</ele>
        <time>2020-03-10T21:51:28Z</time>
      </trkpt>
      <trkpt lat="45.52342" lon="4.74296">
        <ele>496</ele>
        <time>2020-03-10T21:51:41Z</time>
      </trkpt>
      <trkpt lat="45.52415" lon="4.74239">
        <ele>491</ele>
        <time>2020-03-10T21:51:56Z</time>
      </trkpt>
      <trkpt lat="45.5246" lon="4.74218">
        <ele>490</ele>
        <time>2020-03-10T21:52:05Z</time>
      </trkpt>
      <trkpt lat="45.52547" lon="4.74228">
        <ele>494</ele>
        <time>2020-03-10T21:52:20Z</time>
      </trkpt>
      <trkpt lat="45.52634" lon="4.74217">
        <ele>491</ele>
        <time>2020-03-10T21:52:36Z</time>
      </trkpt>
      <trkpt lat="45.527" lon="4.74194">
        <ele>488</ele>
        <time>2020-03-10T21:52:48Z</time>
      </trkpt>
      <trkpt lat="45.52799" lon="4.74103">
        <ele>474</ele>
        <time>2020-03-10T21:53:09Z</time>
      </trkpt>
      <trkpt lat="45.52855" lon="4.74077">
        <ele>469</ele>
        <time>2020-03-10T21:53:19Z</time>
      </trkpt>
      <trkpt lat="45.52902" lon="4.74117">
        <ele>469</ele>
        <time>2020-03-10T21:53:29Z</time>
      </trkpt>
      <trkpt lat="45.52942" lon="4.74188">
        <ele>472</ele>
        <time>2020-03-10T21:53:40Z</time>
      </trkpt>
      <trkpt lat="45.53037" lon="4.74222">
        <ele>460</ele>
        <time>2020-03-10T21:53:58Z</time>
      </trkpt>
      <trkpt lat="45.53067" lon="4.74303">
        <ele>466</ele>
        <time>2020-03-10T21:54:09Z</time>
      </trkpt>
      <trkpt lat="45.53169" lon="4.74355">
        <ele>460</ele>
        <time>2020-03-10T21:54:28Z</time>
      </trkpt>
      <trkpt lat="45.53241" lon="4.74333">
        <ele>461</ele>
        <time>2020-03-10T21:54:41Z</time>
      </trkpt>
      <trkpt lat="45.53326" lon="4.74247">
        <ele>452</ele>
        <time>2020-03-10T21:55:00Z</time>
      </trkpt>
      <trkpt lat="45.53386" lon="4.74222">
        <ele>446</ele>
        <time>2020-03-10T21:55:11Z</time>
      </trkpt>
      <trkpt lat="45.53445" lon="4.74261">
        <ele>445</ele>
        <time>2020-03-10T21:55:23Z</time>
      </trkpt>
      <trkpt lat="45.5349" lon="4.74313">
        <ele>444</ele>
        <time>2020-03-10T21:55:33Z</time>
      </trkpt>
      <trkpt lat="45.53497" lon="4.7437">
        <ele>443</ele>
        <time>2020-03-10T21:55:40Z</time>
      </trkpt>
      <trkpt lat="45.53476" lon="4.74452">
        <ele>447</ele>
        <time>2020-03-10T21:55:51Z</time>
      </trkpt>
      <trkpt lat="45.53496" lon="4.74486">
        <ele>441</ele>
        <time>2020-03-10T21:55:57Z</time>
      </trkpt>
      <trkpt lat="45.53558" lon="4.74473">
        <ele>437</ele>
        <time>2020-03-10T21:56:08Z</time>
      </trkpt>
      <trkpt lat="45.53715" lon="4.74385">
        <ele>426</ele>
        <time>2020-03-10T21:56:38Z</time>
      </trkpt>
      <trkpt lat="45.53791" lon="4.74351">
        <ele>423</ele>
        <time>2020-03-10T21:56:52Z</time>
      </trkpt>
      <trkpt lat="45.53887" lon="4.74343">
        <ele>422</ele>
        <time>2020-03-10T21:57:09Z</time>
      </trkpt>
      <trkpt lat="45.53986" lon="4.74353">
        <ele>424</ele>
        <time>2020-03-10T21:57:27Z</time>
      </trkpt>
      <trkpt lat="45.54093" lon="4.74373">
        <ele>427</ele>
        <time>2020-03-10T21:57:46Z</time>
      </trkpt>
      <trkpt lat="45.54197" lon="4.74434">
        <ele>433</ele>
        <time>2020-03-10T21:58:06Z</time>
      </trkpt>
      <trkpt lat="45.54269" lon="4.74506">
        <ele>434</ele>
        <time>2020-03-10T21:58:22Z</time>
      </trkpt>
      <trkpt lat="45.54311" lon="4.74543">
        <ele>433</ele>
        <time>2020-03-10T21:58:30Z</time>
      </trkpt>
      <trkpt lat="45.54333" lon="4.74607">
        <ele>429</ele>
        <time>2020-03-10T21:58:39Z</time>
      </trkpt>
      <trkpt lat="45.54408" lon="4.74663">
        <ele>429</ele>
        <time>2020-03-10T21:58:54Z</time>
      </trkpt>
      <trkpt lat="45.54524" lon="4.74667">
        <ele>438</ele>
        <time>2020-03-10T21:59:15Z</time>
      </trkpt>
      <trkpt lat="45.54542" lon="4.74746">
        <ele>436</ele>
        <time>2020-03-10T21:59:25Z</time>
      </trkpt>
      <trkpt lat="45.54515" lon="4.74875">
        <ele>431</ele>
        <time>2020-03-10T21:59:42Z</time>
      </trkpt>
      <trkpt lat="45.54532" lon="4.74974">
        <ele>429</ele>
        <time>2020-03-10T21:59:55Z</time>
      </trkpt>
      <trkpt lat="45.54568" lon="4.75049">
        <ele>429</ele>
        <time>2020-03-10T22:00:06Z</time>
      </trkpt>
      <trkpt lat="45.54636" lon="4.75098">
        <ele>430</ele>
        <time>2020-03-10T22:00:20Z</time>
      </trkpt>
      <trkpt lat="45.54677" lon="4.7515">
        <ele>429</ele>
        <time>2020-03-10T22:00:29Z</time>
      </trkpt>
      <trkpt lat="45.547" lon="4.75239">
        <ele>423</ele>
        <time>2020-03-10T22:00:41Z</time>
      </trkpt>
      <trkpt lat="45.54764" lon="4.75294">
        <ele>425</ele>
        <time>2020-03-10T22:00:54Z</time>
      </trkpt>
      <trkpt lat="45.54828" lon="4.75318">
        <ele>427</ele>
        <time>2020-03-10T22:01:06Z</time>
      </trkpt>
      <trkpt lat="45.54962" lon="4.75326">
        <ele>419</ele>
        <time>2020-03-10T22:01:30Z</time>
      </trkpt>
      <trkpt lat="45.55004" lon="4.75364">
        <ele>414</ele>
        <time>2020-03-10T22:01:39Z</time>
      </trkpt>
      <trkpt lat="45.55038" lon="4.75421">
        <ele>411</ele>
        <time>2020-03-10T22:01:48Z</time>
      </trkpt>
      <trkpt lat="45.5503" lon="4.75543">
        <ele>405</ele>
        <time>2020-03-10T22:02:04Z</time>
      </trkpt>
      <trkpt lat="45.55065" lon="4.75743">
        <ele>398</ele>
        <time>2020-03-10T22:02:29Z</time>
      </trkpt>
      <trkpt lat="45.5509" lon="4.75818">
        <ele>397</ele>
        <time>2020-03-10T22:02:40Z</time>
      </trkpt>
      <trkpt lat="45.55164" lon="4.75882">
        <ele>394</ele>
        <time>2020-03-10T22:02:55Z</time>
      </trkpt>
      <trkpt lat="45.55215" lon="4.75964">
        <ele>385</ele>
        <time>2020-03-10T22:03:09Z</time>
      </trkpt>
      <trkpt lat="45.55272" lon="4.75989">
        <ele>383</ele>
        <time>2020-03-10T22:03:19Z</time>
      </trkpt>
      <trkpt lat="45.55372" lon="4.75977">
        <ele>380</ele>
        <time>2020-03-10T22:03:37Z</time>
      </trkpt>
      <trkpt lat="45.55392" lon="4.76014">
        <ele>377</ele>
        <time>2020-03-10T22:03:43Z</time>
      </trkpt>
      <trkpt lat="45.55442" lon="4.76087">
        <ele>375</ele>
        <time>2020-03-10T22:03:56Z</time>
      </trkpt>
      <trkpt lat="45.55572" lon="4.76335">
        <ele>378</ele>
        <time>2020-03-10T22:04:34Z</time>
      </trkpt>
      <trkpt lat="45.55624" lon="4.76453">
        <ele>376</ele>
        <time>2020-03-10T22:04:52Z</time>
      </trkpt>
      <trkpt lat="45.55672" lon="4.766">
        <ele>368</ele>
        <time>2020-03-10T22:05:12Z</time>
      </trkpt>
      <trkpt lat="45.5572" lon="4.76681">
        <ele>365</ele>
        <time>2020-03-10T22:05:25Z</time>
      </trkpt>
      <trkpt lat="45.55804" lon="4.76763">
        <ele>366</ele>
        <time>2020-03-10T22:05:43Z</time>
      </trkpt>
      <trkpt lat="45.55888" lon="4.7684">
        <ele>364</ele>
        <time>2020-03-10T22:06:01Z</time>
      </trkpt>
      <trkpt lat="45.55914" lon="4.76904">
        <ele>363</ele>
        <time>2020-03-10T22:06:10Z</time>
      </trkpt>
      <trkpt lat="45.55947" lon="4.77058">
        <ele>359</ele>
        <time>2020-03-10T22:06:30Z</time>
      </trkpt>
      <trkpt lat="45.55994" lon="4.77161">
        <ele>354</ele>
        <time>2020-03-10T22:06:46Z</time>
      </trkpt>
      <trkpt lat="45.56061" lon="4.77201">
        <ele>353</ele>
        <time>2020-03-10T22:06:58Z</time>
      </trkpt>
      <trkpt lat="45.56196" lon="4.77222">
        <ele>351</ele>
        <time>2020-03-10T22:07:23Z</time>
      </trkpt>
      <trkpt lat="45.56233" lon="4.77244">
        <ele>352</ele>
        <time>2020-03-10T22:07:30Z</time>
      </trkpt>
      <trkpt lat="45.56282" lon="4.77308">
        <ele>353</ele>
        <time>2020-03-10T22:07:42Z</time>
      </trkpt>
      <trkpt lat="45.56308" lon="4.77464">
        <ele>350</ele>
        <time>2020-03-10T22:08:02Z</time>
      </trkpt>
      <trkpt lat="45.56324" lon="4.77506">
        <ele>348</ele>
        <time>2020-03-10T22:08:07Z</time>
      </trkpt>
      <trkpt lat="45.56364" lon="4.77527">
        <ele>347</ele>
        <time>2020-03-10T22:08:15Z</time>
      </trkpt>
      <trkpt lat="45.56459" lon="4.77556">
        <ele>343</ele>
        <time>2020-03-10T22:08:32Z</time>
      </trkpt>
      <trkpt lat="45.56543" lon="4.77558">
        <ele>340</ele>
        <time>2020-03-10T22:08:47Z</time>
      </trkpt>
      <trkpt lat="45.56597" lon="4.77653">
        <ele>335</ele>
        <time>2020-03-10T22:09:03Z</time>
      </trkpt>
      <trkpt lat="45.5669" lon="4.77726">
        <ele>333</ele>
        <time>2020-03-10T22:09:21Z</time>
      </trkpt>
      <trkpt lat="45.5677" lon="4.77811">
        <ele>328</ele>
        <time>2020-03-10T22:09:39Z</time>
      </trkpt>
      <trkpt lat="45.5685" lon="4.77857">
        <ele>324</ele>
        <time>2020-03-10T22:09:55Z</time>
      </trkpt>
      <trkpt lat="45.56911" lon="4.77964">
        <ele>317</ele>
        <time>2020-03-10T22:10:12Z</time>
      </trkpt>
      <trkpt lat="45.56913" lon="4.78016">
        <ele>316</ele>
        <time>2020-03-10T22:10:18Z</time>
      </trkpt>
      <trkpt lat="45.56896" lon="4.78123">
        <ele>313</ele>
        <time>2020-03-10T22:10:32Z</time>
      </trkpt>
      <trkpt lat="45.56862" lon="4.78205">
        <ele>311</ele>
        <time>2020-03-10T22:10:44Z</time>
      </trkpt>
      <trkpt lat="45.5685" lon="4.78272">
        <ele>308</ele>
        <time>2020-03-10T22:10:52Z</time>
      </trkpt>
      <trkpt lat="45.56859" lon="4.78327">
        <ele>304</ele>
        <time>2020-03-10T22:10:59Z</time>
      </trkpt>
      <trkpt lat="45.56882" lon="4.78353">
        <ele>302</ele>
        <time>2020-03-10T22:11:05Z</time>
      </trkpt>
      <trkpt lat="45.56952" lon="4.78381">
        <ele>297</ele>
        <time>2020-03-10T22:11:18Z</time>
      </trkpt>
      <trkpt lat="45.57026" lon="4.78382">
        <ele>293</ele>
        <time>2020-03-10T22:11:31Z</time>
      </trkpt>
      <trkpt lat="45.57069" lon="4.78353">
        <ele>292</ele>
        <time>2020-03-10T22:11:39Z</time>
      </trkpt>
      <trkpt lat="45.57141" lon="4.7835">
        <ele>287</ele>
        <time>2020-03-10T22:11:52Z</time>
      </trkpt>
      <trkpt lat="45.57207" lon="4.78315">
        <ele>285</ele>
        <time>2020-03-10T22:12:05Z</time>
      </trkpt>
      <trkpt lat="45.57283" lon="4.7828">
        <ele>279</ele>
        <time>2020-03-10T22:12:19Z</time>
      </trkpt>
      <trkpt lat="45.57397" lon="4.78193">
        <ele>270</ele>
        <time>2020-03-10T22:12:42Z</time>
      </trkpt>
      <trkpt lat="45.57545" lon="4.78049">
        <ele>261</ele>
        <time>2020-03-10T22:13:14Z</time>
      </trkpt>
      <trkpt lat="45.57576" lon="4.77977">
        <ele>258</ele>
        <time>2020-03-10T22:13:24Z</time>
      </trkpt>
      <trkpt lat="45.57607" lon="4.7785">
        <ele>257</ele>
        <time>2020-03-10T22:13:41Z</time>
      </trkpt>
      <trkpt lat="45.5765" lon="4.77626">
        <ele>254</ele>
        <time>2020-03-10T22:14:10Z</time>
      </trkpt>
      <trkpt lat="45.57673" lon="4.77543">
        <ele>252</ele>
        <time>2020-03-10T22:14:21Z</time>
      </trkpt>
      <trkpt lat="45.57713" lon="4.77507">
        <ele>249</ele>
        <time>2020-03-10T22:14:29Z</time>
      </trkpt>
      <trkpt lat="45.57746" lon="4.77471">
        <ele>243</ele>
        <time>2020-03-10T22:14:37Z</time>
      </trkpt>
      <trkpt lat="45.57738" lon="4.77435">
        <ele>242</ele>
        <time>2020-03-10T22:14:41Z</time>
      </trkpt>
      <trkpt lat="45.57647" lon="4.77378">
        <ele>250</ele>
        <time>2020-03-10T22:14:59Z</time>
      </trkpt>
      <trkpt lat="45.5762" lon="4.77333">
        <ele>251</ele>
        <time>2020-03-10T22:15:06Z</time>
      </trkpt>
      <trkpt lat="45.5767" lon="4.77314">
        <ele>250</ele>
        <time>2020-03-10T22:15:16Z</time>
      </trkpt>
      <trkpt lat="45.57751" lon="4.7733">
        <ele>242</ele>
        <time>2020-03-10T22:15:30Z</time>
      </trkpt>
      <trkpt lat="45.57815" lon="4.77369">
        <ele>239</ele>
        <time>2020-03-10T22:15:43Z</time>
      </trkpt>
      <trkpt lat="45.57851" lon="4.77406">
        <ele>230</ele>
        <time>2020-03-10T22:15:50Z</time>
      </trkpt>
      <trkpt lat="45.57913" lon="4.77356">
        <ele>229</ele>
        <time>2020-03-10T22:16:03Z</time>
      </trkpt>
      <trkpt lat="45.57937" lon="4.77303">
        <ele>229</ele>
        <time>2020-03-10T22:16:11Z</time>
      </trkpt>
      <trkpt lat="45.57985" lon="4.7727">
        <ele>219</ele>
        <time>2020-03-10T22:16:20Z</time>
      </trkpt>
      <trkpt lat="45.58069" lon="4.77204">
        <ele>199</ele>
        <time>2020-03-10T22:16:38Z</time>
      </trkpt>
      <trkpt lat="45.58073" lon="4.77137">
        <ele>205</ele>
        <time>2020-03-10T22:16:46Z</time>
      </trkpt>
      <trkpt lat="45.58106" lon="4.77059">
        <ele>200</ele>
        <time>2020-03-10T22:16:57Z</time>
      </trkpt>
      <trkpt lat="45.58126" lon="4.76991">
        <ele>197</ele>
        <time>2020-03-10T22:17:06Z</time>
      </trkpt>
      <trkpt lat="45.58126" lon="4.76957">
        <ele>201</ele>
        <time>2020-03-10T22:17:11Z</time>
      </trkpt>
      <trkpt lat="45.58108" lon="4.76931">
        <ele>209</ele>
        <time>2020-03-10T22:17:15Z</time>
      </trkpt>
      <trkpt lat="45.58111" lon="4.76896">
        <ele>212</ele>
        <time>2020-03-10T22:17:20Z</time>
      </trkpt>
      <trkpt lat="45.58158" lon="4.7695">
        <ele>193</ele>
        <time>2020-03-10T22:17:30Z</time>
      </trkpt>
      <trkpt lat="45.58192" lon="4.76939">
        <ele>187</ele>
        <time>2020-03-10T22:17:37Z</time>
      </trkpt>
      <trkpt lat="45.58226" lon="4.76922">
        <ele>180</ele>
        <time>2020-03-10T22:17:43Z</time>
      </trkpt>
      <trkpt lat="45.58248" lon="4.7686">
        <ele>186</ele>
        <time>2020-03-10T22:17:52Z</time>
      </trkpt>
      <trkpt lat="45.58317" lon="4.76824">
        <ele>177</ele>
        <time>2020-03-10T22:18:05Z</time>
      </trkpt>
      <trkpt lat="45.58356" lon="4.76781">
        <ele>176</ele>
        <time>2020-03-10T22:18:13Z</time>
      </trkpt>
      <trkpt lat="45.58399" lon="4.76718">
        <ele>171</ele>
        <time>2020-03-10T22:18:24Z</time>
      </trkpt>
      <trkpt lat="45.58445" lon="4.7664">
        <ele>169</ele>
        <time>2020-03-10T22:18:37Z</time>
      </trkpt>
      <trkpt lat="45.585" lon="4.76741">
        <ele>160</ele>
        <time>2020-03-10T22:18:53Z</time>
      </trkpt>
      <trkpt lat="45.58655" lon="4.77161">
        <ele>158</ele>
        <time>2020-03-10T22:19:52Z</time>
      </trkpt>
      <trkpt lat="45.58455" lon="4.77395">
        <ele>160</ele>
        <time>2020-03-10T22:20:38Z</time>
      </trkpt>
      <trkpt lat="45.58077" lon="4.77879">
        <ele>159</ele>
        <time>2020-03-10T22:22:08Z</time>
      </trkpt>
      <trkpt lat="45.58267" lon="4.78171">
        <ele>157</ele>
        <time>2020-03-10T22:22:58Z</time>
      </trkpt>
      <trkpt lat="45.58383" lon="4.78324">
        <ele>157</ele>
        <time>2020-03-10T22:23:26Z</time>
      </trkpt>
      <trkpt lat="45.5839" lon="4.7913">
        <ele>158</ele>
        <time>2020-03-10T22:25:07Z</time>
      </trkpt>
      <trkpt lat="45.58262" lon="4.7923">
        <ele>161</ele>
        <time>2020-03-10T22:25:33Z</time>
      </trkpt>
      <trkpt lat="45.58174" lon="4.79348">
        <ele>161</ele>
        <time>2020-03-10T22:25:54Z</time>
      </trkpt>
      <trkpt lat="45.58227" lon="4.79453">
        <ele>163</ele>
        <time>2020-03-10T22:26:10Z</time>
      </trkpt>
      <trkpt lat="45.58094" lon="4.79637">
        <ele>162</ele>
        <time>2020-03-10T22:26:43Z</time>
      </trkpt>
      <trkpt lat="45.58129" lon="4.79684">
        <ele>168</ele>
        <time>2020-03-10T22:26:52Z</time>
      </trkpt>
      <trkpt lat="45.58256" lon="4.79596">
        <ele>169</ele>
        <time>2020-03-10T22:27:17Z</time>
      </trkpt>
      <trkpt lat="45.58404" lon="4.8002">
        <ele>175</ele>
        <time>2020-03-10T22:28:16Z</time>
      </trkpt>
      <trkpt lat="45.58443" lon="4.80219">
        <ele>180</ele>
        <time>2020-03-10T22:28:41Z</time>
      </trkpt>
      <trkpt lat="45.5847" lon="4.80331">
        <ele>183</ele>
        <time>2020-03-10T22:28:56Z</time>
      </trkpt>
      <trkpt lat="45.5851" lon="4.80374">
        <ele>188</ele>
        <time>2020-03-10T22:29:05Z</time>
      </trkpt>
      <trkpt lat="45.58542" lon="4.80395">
        <ele>189</ele>
        <time>2020-03-10T22:29:11Z</time>
      </trkpt>
      <trkpt lat="45.58601" lon="4.80387">
        <ele>194</ele>
        <time>2020-03-10T22:29:22Z</time>
      </trkpt>
      <trkpt lat="45.58689" lon="4.80385">
        <ele>196</ele>
        <time>2020-03-10T22:29:38Z</time>
      </trkpt>
      <trkpt lat="45.58848" lon="4.80392">
        <ele>196</ele>
        <time>2020-03-10T22:30:06Z</time>
      </trkpt>
      <trkpt lat="45.58926" lon="4.80427">
        <ele>193</ele>
        <time>2020-03-10T22:30:20Z</time>
      </trkpt>
      <trkpt lat="45.59009" lon="4.80489">
        <ele>200</ele>
        <time>2020-03-10T22:30:37Z</time>
      </trkpt>
      <trkpt lat="45.59007" lon="4.80578">
        <ele>206</ele>
        <time>2020-03-10T22:30:48Z</time>
      </trkpt>
      <trkpt lat="45.58969" lon="4.80689">
        <ele>208</ele>
        <time>2020-03-10T22:31:04Z</time>
      </trkpt>
      <trkpt lat="45.58972" lon="4.80866">
        <ele>210</ele>
        <time>2020-03-10T22:31:26Z</time>
      </trkpt>
      <trkpt lat="45.58971" lon="4.81004">
        <ele>208</ele>
        <time>2020-03-10T22:31:43Z</time>
      </trkpt>
      <trkpt lat="45.58997" lon="4.81084">
        <ele>209</ele>
        <time>2020-03-10T22:31:54Z</time>
      </trkpt>
      <trkpt lat="45.59071" lon="4.81167">
        <ele>214</ele>
        <time>2020-03-10T22:32:11Z</time>
      </trkpt>
      <trkpt lat="45.59172" lon="4.81238">
        <ele>214</ele>
        <time>2020-03-10T22:32:31Z</time>
      </trkpt>
      <trkpt lat="45.59267" lon="4.81285">
        <ele>219</ele>
        <time>2020-03-10T22:32:48Z</time>
      </trkpt>
      <trkpt lat="45.59422" lon="4.81298">
        <ele>223</ele>
        <time>2020-03-10T22:33:16Z</time>
      </trkpt>
      <trkpt lat="45.59563" lon="4.81351">
        <ele>221</ele>
        <time>2020-03-10T22:33:42Z</time>
      </trkpt>
      <trkpt lat="45.59684" lon="4.81465">
        <ele>224</ele>
        <time>2020-03-10T22:34:08Z</time>
      </trkpt>
      <trkpt lat="45.59794" lon="4.81608">
        <ele>228</ele>
        <time>2020-03-10T22:34:34Z</time>
      </trkpt>
      <trkpt lat="45.59969" lon="4.81824">
        <ele>229</ele>
        <time>2020-03-10T22:35:15Z</time>
      </trkpt>
      <trkpt lat="45.60047" lon="4.81915">
        <ele>230</ele>
        <time>2020-03-10T22:35:33Z</time>
      </trkpt>
      <trkpt lat="45.60143" lon="4.81968">
        <ele>229</ele>
        <time>2020-03-10T22:35:52Z</time>
      </trkpt>
      <trkpt lat="45.60201" lon="4.81991">
        <ele>230</ele>
        <time>2020-03-10T22:36:02Z</time>
      </trkpt>
      <trkpt lat="45.60277" lon="4.82106">
        <ele>230</ele>
        <time>2020-03-10T22:36:22Z</time>
      </trkpt>
      <trkpt lat="45.60379" lon="4.82191">
        <ele>231</ele>
        <time>2020-03-10T22:36:43Z</time>
      </trkpt>
      <trkpt lat="45.60431" lon="4.82229">
        <ele>233</ele>
        <time>2020-03-10T22:36:53Z</time>
      </trkpt>
      <trkpt lat="45.6048" lon="4.8248">
        <ele>234</ele>
        <time>2020-03-10T22:37:26Z</time>
      </trkpt>
      <trkpt lat="45.60486" lon="4.8269">
        <ele>236</ele>
        <time>2020-03-10T22:37:52Z</time>
      </trkpt>
      <trkpt lat="45.60456" lon="4.82881">
        <ele>236</ele>
        <time>2020-03-10T22:38:16Z</time>
      </trkpt>
      <trkpt lat="45.60411" lon="4.83063">
        <ele>233</ele>
        <time>2020-03-10T22:38:40Z</time>
      </trkpt>
      <trkpt lat="45.60342" lon="4.83282">
        <ele>230</ele>
        <time>2020-03-10T22:39:10Z</time>
      </trkpt>
      <trkpt lat="45.60398" lon="4.83465">
        <ele>228</ele>
        <time>2020-03-10T22:39:35Z</time>
      </trkpt>
      <trkpt lat="45.60419" lon="4.83588">
        <ele>224</ele>
        <time>2020-03-10T22:39:51Z</time>
      </trkpt>
      <trkpt lat="45.60456" lon="4.8378">
        <ele>225</ele>
        <time>2020-03-10T22:40:16Z</time>
      </trkpt>
      <trkpt lat="45.60522" lon="4.84041">
        <ele>227</ele>
        <time>2020-03-10T22:40:50Z</time>
      </trkpt>
      <trkpt lat="45.60565" lon="4.84246">
        <ele>224</ele>
        <time>2020-03-10T22:41:17Z</time>
      </trkpt>
      <trkpt lat="45.60597" lon="4.84384">
        <ele>225</ele>
        <time>2020-03-10T22:41:35Z</time>
      </trkpt>
      <trkpt lat="45.60591" lon="4.84489">
        <ele>224</ele>
        <time>2020-03-10T22:41:48Z</time>
      </trkpt>
      <trkpt lat="45.60612" lon="4.84621">
        <ele>224</ele>
        <time>2020-03-10T22:42:05Z</time>
      </trkpt>
      <trkpt lat="45.60577" lon="4.84883">
        <ele>219</ele>
        <time>2020-03-10T22:42:38Z</time>
      </trkpt>
      <trkpt lat="45.60583" lon="4.85201">
        <ele>217</ele>
        <time>2020-03-10T22:43:18Z</time>
      </trkpt>
      <trkpt lat="45.606" lon="4.85422">
        <ele>216</ele>
        <time>2020-03-10T22:43:45Z</time>
      </trkpt>
      <trkpt lat="45.6064" lon="4.85659">
        <ele>216</ele>
        <time>2020-03-10T22:44:16Z</time>
      </trkpt>
      <trkpt lat="45.60658" lon="4.85802">
        <ele>217</ele>
        <time>2020-03-10T22:44:34Z</time>
      </trkpt>
      <trkpt lat="45.60694" lon="4.85915">
        <ele>220</ele>
        <time>2020-03-10T22:44:49Z</time>
      </trkpt>
      <trkpt lat="45.60753" lon="4.86021">
        <ele>222</ele>
        <time>2020-03-10T22:45:06Z</time>
      </trkpt>
      <trkpt lat="45.60796" lon="4.8614">
        <ele>221</ele>
        <time>2020-03-10T22:45:23Z</time>
      </trkpt>
      <trkpt lat="45.60792" lon="4.86356">
        <ele>225</ele>
        <time>2020-03-10T22:45:50Z</time>
      </trkpt>
      <trkpt lat="45.60802" lon="4.86542">
        <ele>223</ele>
        <time>2020-03-10T22:46:13Z</time>
      </trkpt>
      <trkpt lat="45.60809" lon="4.86783">
        <ele>221</ele>
        <time>2020-03-10T22:46:43Z</time>
      </trkpt>
      <trkpt lat="45.60839" lon="4.86945">
        <ele>218</ele>
        <time>2020-03-10T22:47:04Z</time>
      </trkpt>
      <trkpt lat="45.60883" lon="4.87075">
        <ele>219</ele>
        <time>2020-03-10T22:47:22Z</time>
      </trkpt>
      <trkpt lat="45.61049" lon="4.87189">
        <ele>219</ele>
        <time>2020-03-10T22:47:55Z</time>
      </trkpt>
      <trkpt lat="45.61082" lon="4.87303">
        <ele>221</ele>
        <time>2020-03-10T22:48:10Z</time>
      </trkpt>
      <trkpt lat="45.61139" lon="4.87533">
        <ele>220</ele>
        <time>2020-03-10T22:48:40Z</time>
      </trkpt>
      <trkpt lat="45.61153" lon="4.87807">
        <ele>217</ele>
        <time>2020-03-10T22:49:15Z</time>
      </trkpt>
      <trkpt lat="45.61163" lon="4.87948">
        <ele>218</ele>
        <time>2020-03-10T22:49:32Z</time>
      </trkpt>
      <trkpt lat="45.6119" lon="4.88111">
        <ele>219</ele>
        <time>2020-03-10T22:49:53Z</time>
      </trkpt>
      <trkpt lat="45.61264" lon="4.88362">
        <ele>218</ele>
        <time>2020-03-10T22:50:27Z</time>
      </trkpt>
      <trkpt lat="45.61352" lon="4.88601">
        <ele>217</ele>
        <time>2020-03-10T22:51:01Z</time>
      </trkpt>
      <trkpt lat="45.61412" lon="4.88826">
        <ele>212</ele>
        <time>2020-03-10T22:51:31Z</time>
      </trkpt>
      <trkpt lat="45.61511" lon="4.88967">
        <ele>206</ele>
        <time>2020-03-10T22:51:55Z</time>
      </trkpt>
      <trkpt lat="45.61609" lon="4.89121">
        <ele>200</ele>
        <time>2020-03-10T22:52:21Z</time>
      </trkpt>
      <trkpt lat="45.61693" lon="4.89361">
        <ele>201</ele>
        <time>2020-03-10T22:52:55Z</time>
      </trkpt>
      <trkpt lat="45.61816" lon="4.89662">
        <ele>202</ele>
        <time>2020-03-10T22:53:38Z</time>
      </trkpt>
      <trkpt lat="45.61927" lon="4.89766">
        <ele>198</ele>
        <time>2020-03-10T22:54:02Z</time>
      </trkpt>
      <trkpt lat="45.62031" lon="4.89958">
        <ele>196</ele>
        <time>2020-03-10T22:54:32Z</time>
      </trkpt>
      <trkpt lat="45.62016" lon="4.90134">
        <ele>196</ele>
        <time>2020-03-10T22:54:54Z</time>
      </trkpt>
      <trkpt lat="45.62054" lon="4.90266">
        <ele>196</ele>
        <time>2020-03-10T22:55:12Z</time>
      </trkpt>
      <trkpt lat="45.62212" lon="4.90506">
        <ele>199</ele>
        <time>2020-03-10T22:55:53Z</time>
      </trkpt>
      <trkpt lat="45.62362" lon="4.90453">
        <ele>194</ele>
        <time>2020-03-10T22:56:20Z</time>
      </trkpt>
      <trkpt lat="45.62565" lon="4.90483">
        <ele>192</ele>
        <time>2020-03-10T22:56:57Z</time>
      </trkpt>
      <trkpt lat="45.62592" lon="4.90314">
        <ele>189</ele>
        <time>2020-03-10T22:57:18Z</time>
      </trkpt>
      <trkpt lat="45.6264" lon="4.90166">
        <ele>188</ele>
        <time>2020-03-10T22:57:38Z</time>
      </trkpt>
      <trkpt lat="45.6283" lon="4.90073">
        <ele>185</ele>
        <time>2020-03-10T22:58:14Z</time>
      </trkpt>
      <trkpt lat="45.62936" lon="4.89938">
        <ele>186</ele>
        <time>2020-03-10T22:58:39Z</time>
      </trkpt>
      <trkpt lat="45.63072" lon="4.89853">
        <ele>185</ele>
        <time>2020-03-10T22:59:06Z</time>
      </trkpt>
      <trkpt lat="45.63266" lon="4.89801">
        <ele>186</ele>
        <time>2020-03-10T22:59:41Z</time>
      </trkpt>
      <trkpt lat="45.63344" lon="4.89741">
        <ele>187</ele>
        <time>2020-03-10T22:59:57Z</time>
      </trkpt>
      <trkpt lat="45.63581" lon="4.8981">
        <ele>189</ele>
        <time>2020-03-10T23:00:40Z</time>
      </trkpt>
      <trkpt lat="45.639" lon="4.89896">
        <ele>187</ele>
        <time>2020-03-10T23:01:38Z</time>
      </trkpt>
      <trkpt lat="45.64002" lon="4.89919">
        <ele>187</ele>
        <time>2020-03-10T23:01:56Z</time>
      </trkpt>
      <trkpt lat="45.64108" lon="4.89952">
        <ele>189</ele>
        <time>2020-03-10T23:02:15Z</time>
      </trkpt>
      <trkpt lat="45.64266" lon="4.89926">
        <ele>192</ele>
        <time>2020-03-10T23:02:44Z</time>
      </trkpt>
      <trkpt lat="45.64342" lon="4.90026">
        <ele>190</ele>
        <time>2020-03-10T23:03:02Z</time>
      </trkpt>
      <trkpt lat="45.64438" lon="4.89967">
        <ele>191</ele>
        <time>2020-03-10T23:03:20Z</time>
      </trkpt>
      <trkpt lat="45.65088" lon="4.90023">
        <ele>192</ele>
        <time>2020-03-10T23:05:16Z</time>
      </trkpt>
      <trkpt lat="45.65227" lon="4.90032">
        <ele>193</ele>
        <time>2020-03-10T23:05:41Z</time>
      </trkpt>
      <trkpt lat="45.65448" lon="4.90027">
        <ele>191</ele>
        <time>2020-03-10T23:06:20Z</time>
      </trkpt>
      <trkpt lat="45.65764" lon="4.90024">
        <ele>192</ele>
        <time>2020-03-10T23:07:17Z</time>
      </trkpt>
      <trkpt lat="45.65945" lon="4.9007">
        <ele>195</ele>
        <time>2020-03-10T23:07:49Z</time>
      </trkpt>
      <trkpt lat="45.66061" lon="4.9007">
        <ele>193</ele>
        <time>2020-03-10T23:08:10Z</time>
      </trkpt>
      <trkpt lat="45.66204" lon="4.90047">
        <ele>194</ele>
        <time>2020-03-10T23:08:36Z</time>
      </trkpt>
      <trkpt lat="45.66274" lon="4.90014">
        <ele>196</ele>
        <time>2020-03-10T23:08:49Z</time>
      </trkpt>
      <trkpt lat="45.66432" lon="4.90274">
        <ele>194</ele>
        <time>2020-03-10T23:09:32Z</time>
      </trkpt>
      <trkpt lat="45.66471" lon="4.90314">
        <ele>195</ele>
        <time>2020-03-10T23:09:40Z</time>
      </trkpt>
      <trkpt lat="45.66627" lon="4.9042">
        <ele>196</ele>
        <time>2020-03-10T23:10:11Z</time>
      </trkpt>
      <trkpt lat="45.66769" lon="4.90526">
        <ele>198</ele>
        <time>2020-03-10T23:10:39Z</time>
      </trkpt>
      <trkpt lat="45.66843" lon="4.90578">
        <ele>198</ele>
        <time>2020-03-10T23:10:54Z</time>
      </trkpt>
      <trkpt lat="45.66947" lon="4.90773">
        <ele>199</ele>
        <time>2020-03-10T23:11:24Z</time>
      </trkpt>
      <trkpt lat="45.67052" lon="4.90959">
        <ele>194</ele>
        <time>2020-03-10T23:11:54Z</time>
      </trkpt>
      <trkpt lat="45.6712" lon="4.91008">
        <ele>196</ele>
        <time>2020-03-10T23:12:08Z</time>
      </trkpt>
      <trkpt lat="45.67151" lon="4.91075">
        <ele>195</ele>
        <time>2020-03-10T23:12:18Z</time>
      </trkpt>
      <trkpt lat="45.67213" lon="4.91178">
        <ele>198</ele>
        <time>2020-03-10T23:12:35Z</time>
      </trkpt>
      <trkpt lat="45.67241" lon="4.91268">
        <ele>198</ele>
        <time>2020-03-10T23:12:47Z</time>
      </trkpt>
      <trkpt lat="45.67397" lon="4.91481">
        <ele>203</ele>
        <time>2020-03-10T23:13:25Z</time>
      </trkpt>
      <trkpt lat="45.67552" lon="4.917">
        <ele>204</ele>
        <time>2020-03-10T23:14:04Z</time>
      </trkpt>
      <trkpt lat="45.67629" lon="4.91841">
        <ele>204</ele>
        <time>2020-03-10T23:14:26Z</time>
      </trkpt>
      <trkpt lat="45.67695" lon="4.91923">
        <ele>204</ele>
        <time>2020-03-10T23:14:42Z</time>
      </trkpt>
      <trkpt lat="45.67996" lon="4.92166">
        <ele>207</ele>
        <time>2020-03-10T23:15:43Z</time>
      </trkpt>
      <trkpt lat="45.68085" lon="4.92262">
        <ele>206</ele>
        <time>2020-03-10T23:16:03Z</time>
      </trkpt>
      <trkpt lat="45.68194" lon="4.9241">
        <ele>206</ele>
        <time>2020-03-10T23:16:30Z</time>
      </trkpt>
      <trkpt lat="45.68329" lon="4.92658">
        <ele>208</ele>
        <time>2020-03-10T23:17:09Z</time>
      </trkpt>
      <trkpt lat="45.6843" lon="4.92856">
        <ele>210</ele>
        <time>2020-03-10T23:17:39Z</time>
      </trkpt>
      <trkpt lat="45.68445" lon="4.929">
        <ele>207</ele>
        <time>2020-03-10T23:17:46Z</time>
      </trkpt>
      <trkpt lat="45.68572" lon="4.9314">
        <ele>208</ele>
        <time>2020-03-10T23:18:23Z</time>
      </trkpt>
      <trkpt lat="45.68594" lon="4.9319">
        <ele>207</ele>
        <time>2020-03-10T23:18:30Z</time>
      </trkpt>
      <trkpt lat="45.68652" lon="4.93223">
        <ele>208</ele>
        <time>2020-03-10T23:18:41Z</time>
      </trkpt>
      <trkpt lat="45.68679" lon="4.93285">
        <ele>209</ele>
        <time>2020-03-10T23:18:50Z</time>
      </trkpt>
      <trkpt lat="45.68727" lon="4.93303">
        <ele>208</ele>
        <time>2020-03-10T23:18:59Z</time>
      </trkpt>
      <trkpt lat="45.68804" lon="4.93337">
        <ele>207</ele>
        <time>2020-03-10T23:19:14Z</time>
      </trkpt>
      <trkpt lat="45.68806" lon="4.93416">
        <ele>207</ele>
        <time>2020-03-10T23:19:23Z</time>
      </trkpt>
      <trkpt lat="45.6874" lon="4.93568">
        <ele>210</ele>
        <time>2020-03-10T23:19:46Z</time>
      </trkpt>
      <trkpt lat="45.68713" lon="4.93646">
        <ele>212</ele>
        <time>2020-03-10T23:19:57Z</time>
      </trkpt>
      <trkpt lat="45.6871" lon="4.93872">
        <ele>211</ele>
        <time>2020-03-10T23:20:25Z</time>
      </trkpt>
      <trkpt lat="45.68653" lon="4.94007">
        <ele>213</ele>
        <time>2020-03-10T23:20:44Z</time>
      </trkpt>
      <trkpt lat="45.68598" lon="4.9415">
        <ele>212</ele>
        <time>2020-03-10T23:21:05Z</time>
      </trkpt>
      <trkpt lat="45.68508" lon="4.94346">
        <ele>214</ele>
        <time>2020-03-10T23:21:34Z</time>
      </trkpt>
      <trkpt lat="45.68468" lon="4.94449">
        <ele>212</ele>
        <time>2020-03-10T23:21:48Z</time>
      </trkpt>
      <trkpt lat="45.68514" lon="4.94568">
        <ele>212</ele>
        <time>2020-03-10T23:22:05Z</time>
      </trkpt>
      <trkpt lat="45.68542" lon="4.94707">
        <ele>213</ele>
        <time>2020-03-10T23:22:23Z</time>
      </trkpt>
    </trkseg>
  </trk>
</gpx>